<?xml version="1.0" encoding="UTF-8" standalone="no" ?><gpx xmlns="http://www.topografix.com/GPX/1/1" xmlns:gpxx="http://www.garmin.com/xmlschemas/GpxExtensions/v3" xmlns:wptx1="http://www.garmin.com/xmlschemas/WaypointExtension/v1" xmlns:gpxtpx="http://www.garmin.com/xmlschemas/TrackPointExtension/v1" creator="eTrex 20" version="1.1" xmlns:xsi="http://www.w3.org/2001/XMLSchema-instance" xsi:schemaLocation="http://www.topografix.com/GPX/1/1 http://www.topografix.com/GPX/1/1/gpx.xsd http://www.garmin.com/xmlschemas/GpxExtensions/v3 http://www8.garmin.com/xmlschemas/GpxExtensionsv3.xsd http://www.garmin.com/xmlschemas/WaypointExtension/v1 http://www8.garmin.com/xmlschemas/WaypointExtensionv1.xsd http://www.garmin.com/xmlschemas/TrackPointExtension/v1 http://www.garmin.com/xmlschemas/TrackPointExtensionv1.xsd"><metadata><link href="http://www.garmin.com"><text>Garmin International</text></link><time>2012-01-28T12:38:57Z</time></metadata><trk><name>28-ENE-12 12:37:02 Vallesa-la cañada</name><extensions><gpxx:TrackExtension><gpxx:DisplayColor>Blue</gpxx:DisplayColor></gpxx:TrackExtension></extensions><trkseg><trkpt lat="39.504948" lon="-0.442436"><ele>60.70</ele><time>2012-01-28T08:34:38Z</time></trkpt><trkpt lat="39.504787" lon="-0.442241"><ele>68.87</ele><time>2012-01-28T08:34:55Z</time></trkpt><trkpt lat="39.504776" lon="-0.442258"><ele>75.12</ele><time>2012-01-28T08:35:21Z</time></trkpt><trkpt lat="39.504745" lon="-0.442266"><ele>70.79</ele><time>2012-01-28T08:35:25Z</time></trkpt><trkpt lat="39.504532" lon="-0.442286"><ele>64.07</ele><time>2012-01-28T08:35:34Z</time></trkpt><trkpt lat="39.504501" lon="-0.442066"><ele>64.07</ele><time>2012-01-28T08:35:42Z</time></trkpt><trkpt lat="39.504532" lon="-0.441987"><ele>64.55</ele><time>2012-01-28T08:35:44Z</time></trkpt><trkpt lat="39.504517" lon="-0.441781"><ele>67.91</ele><time>2012-01-28T08:35:48Z</time></trkpt><trkpt lat="39.504536" lon="-0.441412"><ele>70.31</ele><time>2012-01-28T08:35:53Z</time></trkpt><trkpt lat="39.504501" lon="-0.440903"><ele>72.72</ele><time>2012-01-28T08:36:04Z</time></trkpt><trkpt lat="39.504498" lon="-0.440880"><ele>72.24</ele><time>2012-01-28T08:36:05Z</time></trkpt><trkpt lat="39.504452" lon="-0.440823"><ele>73.68</ele><time>2012-01-28T08:36:20Z</time></trkpt><trkpt lat="39.504440" lon="-0.440818"><ele>74.64</ele><time>2012-01-28T08:36:45Z</time></trkpt><trkpt lat="39.504337" lon="-0.440574"><ele>75.12</ele><time>2012-01-28T08:36:55Z</time></trkpt><trkpt lat="39.504333" lon="-0.440539"><ele>75.12</ele><time>2012-01-28T08:36:56Z</time></trkpt><trkpt lat="39.504498" lon="-0.440193"><ele>70.79</ele><time>2012-01-28T08:37:06Z</time></trkpt><trkpt lat="39.504555" lon="-0.440087"><ele>67.43</ele><time>2012-01-28T08:37:16Z</time></trkpt><trkpt lat="39.504566" lon="-0.440067"><ele>66.47</ele><time>2012-01-28T08:37:21Z</time></trkpt><trkpt lat="39.504692" lon="-0.439784"><ele>66.95</ele><time>2012-01-28T08:37:33Z</time></trkpt><trkpt lat="39.504890" lon="-0.439350"><ele>71.76</ele><time>2012-01-28T08:37:43Z</time></trkpt><trkpt lat="39.504951" lon="-0.439120"><ele>71.76</ele><time>2012-01-28T08:37:47Z</time></trkpt><trkpt lat="39.505074" lon="-0.438649"><ele>73.68</ele><time>2012-01-28T08:37:56Z</time></trkpt><trkpt lat="39.505077" lon="-0.438318"><ele>75.12</ele><time>2012-01-28T08:38:02Z</time></trkpt><trkpt lat="39.505203" lon="-0.437918"><ele>72.72</ele><time>2012-01-28T08:38:11Z</time></trkpt><trkpt lat="39.505699" lon="-0.437316"><ele>69.35</ele><time>2012-01-28T08:38:23Z</time></trkpt><trkpt lat="39.505943" lon="-0.437001"><ele>66.95</ele><time>2012-01-28T08:38:28Z</time></trkpt><trkpt lat="39.506618" lon="-0.436158"><ele>62.14</ele><time>2012-01-28T08:38:41Z</time></trkpt><trkpt lat="39.507195" lon="-0.435393"><ele>57.34</ele><time>2012-01-28T08:38:50Z</time></trkpt><trkpt lat="39.507401" lon="-0.435045"><ele>55.89</ele><time>2012-01-28T08:38:54Z</time></trkpt><trkpt lat="39.507557" lon="-0.434813"><ele>54.93</ele><time>2012-01-28T08:38:57Z</time></trkpt><trkpt lat="39.507858" lon="-0.434129"><ele>49.16</ele><time>2012-01-28T08:39:06Z</time></trkpt><trkpt lat="39.508034" lon="-0.433971"><ele>45.80</ele><time>2012-01-28T08:39:12Z</time></trkpt><trkpt lat="39.507908" lon="-0.434202"><ele>46.28</ele><time>2012-01-28T08:39:18Z</time></trkpt><trkpt lat="39.507835" lon="-0.434379"><ele>47.72</ele><time>2012-01-28T08:39:22Z</time></trkpt><trkpt lat="39.507706" lon="-0.434947"><ele>51.57</ele><time>2012-01-28T08:39:36Z</time></trkpt><trkpt lat="39.507679" lon="-0.435035"><ele>52.05</ele><time>2012-01-28T08:39:38Z</time></trkpt><trkpt lat="39.507568" lon="-0.435089"><ele>52.05</ele><time>2012-01-28T08:39:41Z</time></trkpt><trkpt lat="39.507317" lon="-0.435338"><ele>53.01</ele><time>2012-01-28T08:39:51Z</time></trkpt><trkpt lat="39.507004" lon="-0.435719"><ele>55.41</ele><time>2012-01-28T08:40:04Z</time></trkpt><trkpt lat="39.506847" lon="-0.435954"><ele>57.34</ele><time>2012-01-28T08:40:11Z</time></trkpt><trkpt lat="39.506725" lon="-0.436503"><ele>59.26</ele><time>2012-01-28T08:40:24Z</time></trkpt><trkpt lat="39.506454" lon="-0.436690"><ele>62.14</ele><time>2012-01-28T08:40:34Z</time></trkpt><trkpt lat="39.506424" lon="-0.436678"><ele>62.14</ele><time>2012-01-28T08:40:48Z</time></trkpt><trkpt lat="39.506424" lon="-0.436679"><ele>61.66</ele><time>2012-01-28T08:41:19Z</time></trkpt><trkpt lat="39.506424" lon="-0.436679"><ele>61.66</ele><time>2012-01-28T08:41:22Z</time></trkpt><trkpt lat="39.506378" lon="-0.436622"><ele>61.66</ele><time>2012-01-28T08:41:26Z</time></trkpt><trkpt lat="39.506401" lon="-0.436488"><ele>60.22</ele><time>2012-01-28T08:41:30Z</time></trkpt><trkpt lat="39.506855" lon="-0.435864"><ele>57.82</ele><time>2012-01-28T08:41:42Z</time></trkpt><trkpt lat="39.507301" lon="-0.435250"><ele>54.93</ele><time>2012-01-28T08:41:51Z</time></trkpt><trkpt lat="39.507427" lon="-0.435010"><ele>53.97</ele><time>2012-01-28T08:41:54Z</time></trkpt><trkpt lat="39.507530" lon="-0.434868"><ele>53.97</ele><time>2012-01-28T08:41:56Z</time></trkpt><trkpt lat="39.507870" lon="-0.434095"><ele>48.68</ele><time>2012-01-28T08:42:05Z</time></trkpt><trkpt lat="39.508038" lon="-0.433971"><ele>46.76</ele><time>2012-01-28T08:42:09Z</time></trkpt><trkpt lat="39.508331" lon="-0.434123"><ele>46.28</ele><time>2012-01-28T08:42:15Z</time></trkpt><trkpt lat="39.508488" lon="-0.434250"><ele>47.24</ele><time>2012-01-28T08:42:18Z</time></trkpt><trkpt lat="39.508671" lon="-0.434291"><ele>49.65</ele><time>2012-01-28T08:42:22Z</time></trkpt><trkpt lat="39.508820" lon="-0.434360"><ele>52.05</ele><time>2012-01-28T08:42:26Z</time></trkpt><trkpt lat="39.509365" lon="-0.434756"><ele>55.41</ele><time>2012-01-28T08:42:42Z</time></trkpt><trkpt lat="39.509937" lon="-0.435034"><ele>55.41</ele><time>2012-01-28T08:42:57Z</time></trkpt><trkpt lat="39.510349" lon="-0.435197"><ele>56.86</ele><time>2012-01-28T08:43:09Z</time></trkpt><trkpt lat="39.510773" lon="-0.435346"><ele>57.34</ele><time>2012-01-28T08:43:21Z</time></trkpt><trkpt lat="39.511223" lon="-0.435519"><ele>57.82</ele><time>2012-01-28T08:43:33Z</time></trkpt><trkpt lat="39.511543" lon="-0.435643"><ele>57.82</ele><time>2012-01-28T08:43:41Z</time></trkpt><trkpt lat="39.511696" lon="-0.435689"><ele>57.34</ele><time>2012-01-28T08:43:45Z</time></trkpt><trkpt lat="39.511822" lon="-0.435709"><ele>57.82</ele><time>2012-01-28T08:43:50Z</time></trkpt><trkpt lat="39.511951" lon="-0.435847"><ele>57.82</ele><time>2012-01-28T08:43:55Z</time></trkpt><trkpt lat="39.512486" lon="-0.436087"><ele>57.82</ele><time>2012-01-28T08:44:09Z</time></trkpt><trkpt lat="39.512745" lon="-0.436285"><ele>56.37</ele><time>2012-01-28T08:44:18Z</time></trkpt><trkpt lat="39.513306" lon="-0.436747"><ele>58.30</ele><time>2012-01-28T08:44:35Z</time></trkpt><trkpt lat="39.513649" lon="-0.437125"><ele>58.30</ele><time>2012-01-28T08:44:47Z</time></trkpt><trkpt lat="39.513863" lon="-0.437343"><ele>57.82</ele><time>2012-01-28T08:44:56Z</time></trkpt><trkpt lat="39.514271" lon="-0.437771"><ele>58.78</ele><time>2012-01-28T08:45:10Z</time></trkpt><trkpt lat="39.514351" lon="-0.437879"><ele>58.78</ele><time>2012-01-28T08:45:13Z</time></trkpt><trkpt lat="39.514442" lon="-0.438058"><ele>59.26</ele><time>2012-01-28T08:45:17Z</time></trkpt><trkpt lat="39.514519" lon="-0.438196"><ele>59.74</ele><time>2012-01-28T08:45:20Z</time></trkpt><trkpt lat="39.514679" lon="-0.438464"><ele>60.22</ele><time>2012-01-28T08:45:26Z</time></trkpt><trkpt lat="39.515099" lon="-0.438874"><ele>61.18</ele><time>2012-01-28T08:45:40Z</time></trkpt><trkpt lat="39.515491" lon="-0.439099"><ele>62.14</ele><time>2012-01-28T08:45:52Z</time></trkpt><trkpt lat="39.515980" lon="-0.439447"><ele>62.14</ele><time>2012-01-28T08:46:07Z</time></trkpt><trkpt lat="39.516018" lon="-0.439473"><ele>62.14</ele><time>2012-01-28T08:46:08Z</time></trkpt><trkpt lat="39.516228" lon="-0.439653"><ele>62.14</ele><time>2012-01-28T08:46:14Z</time></trkpt><trkpt lat="39.516602" lon="-0.440011"><ele>62.14</ele><time>2012-01-28T08:46:25Z</time></trkpt><trkpt lat="39.516914" lon="-0.440358"><ele>61.66</ele><time>2012-01-28T08:46:36Z</time></trkpt><trkpt lat="39.517155" lon="-0.440520"><ele>61.66</ele><time>2012-01-28T08:46:42Z</time></trkpt><trkpt lat="39.517448" lon="-0.440655"><ele>63.58</ele><time>2012-01-28T08:46:53Z</time></trkpt><trkpt lat="39.517483" lon="-0.440687"><ele>63.58</ele><time>2012-01-28T08:46:56Z</time></trkpt><trkpt lat="39.517689" lon="-0.440939"><ele>63.58</ele><time>2012-01-28T08:47:06Z</time></trkpt><trkpt lat="39.517853" lon="-0.441167"><ele>63.10</ele><time>2012-01-28T08:47:13Z</time></trkpt><trkpt lat="39.517906" lon="-0.441248"><ele>63.10</ele><time>2012-01-28T08:47:15Z</time></trkpt><trkpt lat="39.517967" lon="-0.441354"><ele>63.10</ele><time>2012-01-28T08:47:17Z</time></trkpt><trkpt lat="39.518284" lon="-0.441591"><ele>63.10</ele><time>2012-01-28T08:47:27Z</time></trkpt><trkpt lat="39.518570" lon="-0.441830"><ele>64.07</ele><time>2012-01-28T08:47:37Z</time></trkpt><trkpt lat="39.518894" lon="-0.442148"><ele>65.03</ele><time>2012-01-28T08:47:51Z</time></trkpt><trkpt lat="39.519222" lon="-0.442623"><ele>65.99</ele><time>2012-01-28T08:48:08Z</time></trkpt><trkpt lat="39.519577" lon="-0.442762"><ele>66.95</ele><time>2012-01-28T08:48:20Z</time></trkpt><trkpt lat="39.519943" lon="-0.442778"><ele>67.43</ele><time>2012-01-28T08:48:32Z</time></trkpt><trkpt lat="39.520252" lon="-0.442959"><ele>67.91</ele><time>2012-01-28T08:48:43Z</time></trkpt><trkpt lat="39.520515" lon="-0.443192"><ele>68.87</ele><time>2012-01-28T08:48:54Z</time></trkpt><trkpt lat="39.520584" lon="-0.443229"><ele>68.87</ele><time>2012-01-28T08:48:56Z</time></trkpt><trkpt lat="39.520760" lon="-0.443369"><ele>70.31</ele><time>2012-01-28T08:49:03Z</time></trkpt><trkpt lat="39.520775" lon="-0.443404"><ele>70.31</ele><time>2012-01-28T08:49:05Z</time></trkpt><trkpt lat="39.520943" lon="-0.443598"><ele>70.79</ele><time>2012-01-28T08:49:15Z</time></trkpt><trkpt lat="39.521023" lon="-0.443662"><ele>70.79</ele><time>2012-01-28T08:49:20Z</time></trkpt><trkpt lat="39.521309" lon="-0.443679"><ele>72.24</ele><time>2012-01-28T08:49:31Z</time></trkpt><trkpt lat="39.521584" lon="-0.443819"><ele>72.72</ele><time>2012-01-28T08:49:42Z</time></trkpt><trkpt lat="39.521873" lon="-0.443899"><ele>72.72</ele><time>2012-01-28T08:49:53Z</time></trkpt><trkpt lat="39.522152" lon="-0.443991"><ele>73.20</ele><time>2012-01-28T08:50:04Z</time></trkpt><trkpt lat="39.522434" lon="-0.444014"><ele>74.64</ele><time>2012-01-28T08:50:14Z</time></trkpt><trkpt lat="39.522766" lon="-0.444065"><ele>76.08</ele><time>2012-01-28T08:50:25Z</time></trkpt><trkpt lat="39.523029" lon="-0.444268"><ele>76.08</ele><time>2012-01-28T08:50:37Z</time></trkpt><trkpt lat="39.523247" lon="-0.444478"><ele>76.56</ele><time>2012-01-28T08:50:47Z</time></trkpt><trkpt lat="39.523460" lon="-0.444614"><ele>77.52</ele><time>2012-01-28T08:50:58Z</time></trkpt><trkpt lat="39.523457" lon="-0.444612"><ele>77.04</ele><time>2012-01-28T08:51:13Z</time></trkpt><trkpt lat="39.523655" lon="-0.444730"><ele>78.00</ele><time>2012-01-28T08:51:20Z</time></trkpt><trkpt lat="39.524002" lon="-0.444957"><ele>78.48</ele><time>2012-01-28T08:51:29Z</time></trkpt><trkpt lat="39.524151" lon="-0.445059"><ele>78.48</ele><time>2012-01-28T08:51:32Z</time></trkpt><trkpt lat="39.524265" lon="-0.445131"><ele>78.48</ele><time>2012-01-28T08:51:34Z</time></trkpt><trkpt lat="39.524498" lon="-0.445290"><ele>78.48</ele><time>2012-01-28T08:51:38Z</time></trkpt><trkpt lat="39.524586" lon="-0.445363"><ele>78.97</ele><time>2012-01-28T08:51:40Z</time></trkpt><trkpt lat="39.524734" lon="-0.445498"><ele>79.45</ele><time>2012-01-28T08:51:45Z</time></trkpt><trkpt lat="39.524879" lon="-0.445621"><ele>79.93</ele><time>2012-01-28T08:51:55Z</time></trkpt><trkpt lat="39.524891" lon="-0.445629"><ele>79.93</ele><time>2012-01-28T08:52:15Z</time></trkpt><trkpt lat="39.525017" lon="-0.445720"><ele>80.89</ele><time>2012-01-28T08:52:21Z</time></trkpt><trkpt lat="39.525314" lon="-0.445990"><ele>81.37</ele><time>2012-01-28T08:52:34Z</time></trkpt><trkpt lat="39.525566" lon="-0.446198"><ele>81.37</ele><time>2012-01-28T08:52:45Z</time></trkpt><trkpt lat="39.525898" lon="-0.446461"><ele>81.85</ele><time>2012-01-28T08:52:58Z</time></trkpt><trkpt lat="39.526222" lon="-0.446717"><ele>82.81</ele><time>2012-01-28T08:53:09Z</time></trkpt><trkpt lat="39.526566" lon="-0.447002"><ele>82.33</ele><time>2012-01-28T08:53:21Z</time></trkpt><trkpt lat="39.526932" lon="-0.447265"><ele>82.81</ele><time>2012-01-28T08:53:33Z</time></trkpt><trkpt lat="39.527306" lon="-0.447392"><ele>84.25</ele><time>2012-01-28T08:53:44Z</time></trkpt><trkpt lat="39.527622" lon="-0.447603"><ele>85.69</ele><time>2012-01-28T08:53:56Z</time></trkpt><trkpt lat="39.527840" lon="-0.447796"><ele>86.66</ele><time>2012-01-28T08:54:06Z</time></trkpt><trkpt lat="39.527908" lon="-0.447849"><ele>87.14</ele><time>2012-01-28T08:54:09Z</time></trkpt><trkpt lat="39.528038" lon="-0.447770"><ele>87.14</ele><time>2012-01-28T08:54:15Z</time></trkpt><trkpt lat="39.528378" lon="-0.447763"><ele>87.14</ele><time>2012-01-28T08:54:26Z</time></trkpt><trkpt lat="39.528545" lon="-0.447803"><ele>86.66</ele><time>2012-01-28T08:54:31Z</time></trkpt><trkpt lat="39.528923" lon="-0.447906"><ele>84.73</ele><time>2012-01-28T08:54:42Z</time></trkpt><trkpt lat="39.529083" lon="-0.448015"><ele>83.29</ele><time>2012-01-28T08:54:48Z</time></trkpt><trkpt lat="39.529186" lon="-0.448103"><ele>82.33</ele><time>2012-01-28T08:54:51Z</time></trkpt><trkpt lat="39.529274" lon="-0.448213"><ele>82.33</ele><time>2012-01-28T08:54:54Z</time></trkpt><trkpt lat="39.529446" lon="-0.448218"><ele>82.81</ele><time>2012-01-28T08:55:00Z</time></trkpt><trkpt lat="39.529728" lon="-0.448149"><ele>83.29</ele><time>2012-01-28T08:55:11Z</time></trkpt><trkpt lat="39.530022" lon="-0.448286"><ele>83.77</ele><time>2012-01-28T08:55:22Z</time></trkpt><trkpt lat="39.530239" lon="-0.448473"><ele>84.25</ele><time>2012-01-28T08:55:31Z</time></trkpt><trkpt lat="39.530651" lon="-0.448730"><ele>83.77</ele><time>2012-01-28T08:55:44Z</time></trkpt><trkpt lat="39.530769" lon="-0.448834"><ele>83.29</ele><time>2012-01-28T08:55:47Z</time></trkpt><trkpt lat="39.530972" lon="-0.448964"><ele>82.81</ele><time>2012-01-28T08:55:53Z</time></trkpt><trkpt lat="39.531097" lon="-0.449093"><ele>83.29</ele><time>2012-01-28T08:56:01Z</time></trkpt><trkpt lat="39.531269" lon="-0.449364"><ele>83.77</ele><time>2012-01-28T08:56:11Z</time></trkpt><trkpt lat="39.531555" lon="-0.449497"><ele>83.29</ele><time>2012-01-28T08:56:20Z</time></trkpt><trkpt lat="39.531624" lon="-0.449490"><ele>83.29</ele><time>2012-01-28T08:56:22Z</time></trkpt><trkpt lat="39.531727" lon="-0.449507"><ele>83.29</ele><time>2012-01-28T08:56:26Z</time></trkpt><trkpt lat="39.531887" lon="-0.449493"><ele>82.81</ele><time>2012-01-28T08:56:31Z</time></trkpt><trkpt lat="39.531960" lon="-0.449799"><ele>81.85</ele><time>2012-01-28T08:56:39Z</time></trkpt><trkpt lat="39.531872" lon="-0.450200"><ele>82.81</ele><time>2012-01-28T08:56:51Z</time></trkpt><trkpt lat="39.531677" lon="-0.450704"><ele>85.21</ele><time>2012-01-28T08:57:05Z</time></trkpt><trkpt lat="39.531570" lon="-0.451055"><ele>88.58</ele><time>2012-01-28T08:57:15Z</time></trkpt><trkpt lat="39.531422" lon="-0.451306"><ele>89.06</ele><time>2012-01-28T08:57:26Z</time></trkpt><trkpt lat="39.531292" lon="-0.451696"><ele>90.50</ele><time>2012-01-28T08:57:37Z</time></trkpt><trkpt lat="39.531128" lon="-0.451886"><ele>91.94</ele><time>2012-01-28T08:57:48Z</time></trkpt><trkpt lat="39.530937" lon="-0.452020"><ele>92.42</ele><time>2012-01-28T08:58:00Z</time></trkpt><trkpt lat="39.530846" lon="-0.452288"><ele>93.87</ele><time>2012-01-28T08:58:12Z</time></trkpt><trkpt lat="39.530746" lon="-0.452416"><ele>93.87</ele><time>2012-01-28T08:58:20Z</time></trkpt><trkpt lat="39.530754" lon="-0.452588"><ele>94.35</ele><time>2012-01-28T08:58:31Z</time></trkpt><trkpt lat="39.530815" lon="-0.452913"><ele>95.31</ele><time>2012-01-28T08:58:45Z</time></trkpt><trkpt lat="39.530930" lon="-0.453359"><ele>95.31</ele><time>2012-01-28T08:59:02Z</time></trkpt><trkpt lat="39.531044" lon="-0.453796"><ele>94.83</ele><time>2012-01-28T08:59:17Z</time></trkpt><trkpt lat="39.531075" lon="-0.454156"><ele>96.27</ele><time>2012-01-28T08:59:30Z</time></trkpt><trkpt lat="39.531219" lon="-0.454418"><ele>96.27</ele><time>2012-01-28T08:59:41Z</time></trkpt><trkpt lat="39.531483" lon="-0.454613"><ele>95.31</ele><time>2012-01-28T08:59:52Z</time></trkpt><trkpt lat="39.531780" lon="-0.455077"><ele>95.79</ele><time>2012-01-28T09:00:09Z</time></trkpt><trkpt lat="39.531948" lon="-0.455441"><ele>96.75</ele><time>2012-01-28T09:00:24Z</time></trkpt><trkpt lat="39.532158" lon="-0.455625"><ele>96.75</ele><time>2012-01-28T09:00:36Z</time></trkpt><trkpt lat="39.532478" lon="-0.455860"><ele>96.27</ele><time>2012-01-28T09:00:48Z</time></trkpt><trkpt lat="39.532871" lon="-0.456008"><ele>96.75</ele><time>2012-01-28T09:01:01Z</time></trkpt><trkpt lat="39.533215" lon="-0.456008"><ele>97.23</ele><time>2012-01-28T09:01:12Z</time></trkpt><trkpt lat="39.533581" lon="-0.455637"><ele>97.71</ele><time>2012-01-28T09:01:26Z</time></trkpt><trkpt lat="39.533909" lon="-0.455298"><ele>100.60</ele><time>2012-01-28T09:01:37Z</time></trkpt><trkpt lat="39.534134" lon="-0.454964"><ele>102.52</ele><time>2012-01-28T09:01:48Z</time></trkpt><trkpt lat="39.534397" lon="-0.454758"><ele>99.63</ele><time>2012-01-28T09:01:59Z</time></trkpt><trkpt lat="39.534393" lon="-0.454759"><ele>99.63</ele><time>2012-01-28T09:02:22Z</time></trkpt><trkpt lat="39.534435" lon="-0.454743"><ele>101.56</ele><time>2012-01-28T09:02:51Z</time></trkpt><trkpt lat="39.534496" lon="-0.454751"><ele>102.52</ele><time>2012-01-28T09:02:54Z</time></trkpt><trkpt lat="39.534588" lon="-0.454915"><ele>103.00</ele><time>2012-01-28T09:02:58Z</time></trkpt><trkpt lat="39.534721" lon="-0.455297"><ele>103.48</ele><time>2012-01-28T09:03:05Z</time></trkpt><trkpt lat="39.534840" lon="-0.455693"><ele>103.96</ele><time>2012-01-28T09:03:17Z</time></trkpt><trkpt lat="39.535007" lon="-0.456339"><ele>104.92</ele><time>2012-01-28T09:03:32Z</time></trkpt><trkpt lat="39.535156" lon="-0.456945"><ele>105.40</ele><time>2012-01-28T09:03:45Z</time></trkpt><trkpt lat="39.535164" lon="-0.457051"><ele>105.40</ele><time>2012-01-28T09:03:47Z</time></trkpt><trkpt lat="39.535229" lon="-0.457264"><ele>104.92</ele><time>2012-01-28T09:03:51Z</time></trkpt><trkpt lat="39.535275" lon="-0.457362"><ele>104.92</ele><time>2012-01-28T09:03:53Z</time></trkpt><trkpt lat="39.535534" lon="-0.457776"><ele>104.44</ele><time>2012-01-28T09:04:03Z</time></trkpt><trkpt lat="39.535976" lon="-0.458465"><ele>104.44</ele><time>2012-01-28T09:04:18Z</time></trkpt><trkpt lat="39.536057" lon="-0.458625"><ele>104.44</ele><time>2012-01-28T09:04:21Z</time></trkpt><trkpt lat="39.536152" lon="-0.458880"><ele>103.96</ele><time>2012-01-28T09:04:25Z</time></trkpt><trkpt lat="39.536106" lon="-0.459368"><ele>101.56</ele><time>2012-01-28T09:04:31Z</time></trkpt><trkpt lat="39.536110" lon="-0.459877"><ele>99.15</ele><time>2012-01-28T09:04:37Z</time></trkpt><trkpt lat="39.536201" lon="-0.460012"><ele>98.67</ele><time>2012-01-28T09:04:39Z</time></trkpt><trkpt lat="39.536282" lon="-0.460159"><ele>98.19</ele><time>2012-01-28T09:04:41Z</time></trkpt><trkpt lat="39.536358" lon="-0.460292"><ele>97.71</ele><time>2012-01-28T09:04:43Z</time></trkpt><trkpt lat="39.536724" lon="-0.461090"><ele>96.75</ele><time>2012-01-28T09:04:56Z</time></trkpt><trkpt lat="39.536991" lon="-0.462209"><ele>97.23</ele><time>2012-01-28T09:05:11Z</time></trkpt><trkpt lat="39.537228" lon="-0.462992"><ele>100.11</ele><time>2012-01-28T09:05:24Z</time></trkpt><trkpt lat="39.537354" lon="-0.463358"><ele>101.56</ele><time>2012-01-28T09:05:31Z</time></trkpt><trkpt lat="39.537460" lon="-0.463652"><ele>103.00</ele><time>2012-01-28T09:05:37Z</time></trkpt><trkpt lat="39.537514" lon="-0.463852"><ele>103.96</ele><time>2012-01-28T09:05:41Z</time></trkpt><trkpt lat="39.537739" lon="-0.464473"><ele>106.84</ele><time>2012-01-28T09:05:56Z</time></trkpt><trkpt lat="39.537930" lon="-0.464918"><ele>108.77</ele><time>2012-01-28T09:06:11Z</time></trkpt><trkpt lat="39.538013" lon="-0.465128"><ele>109.73</ele><time>2012-01-28T09:06:20Z</time></trkpt><trkpt lat="39.538223" lon="-0.465405"><ele>110.69</ele><time>2012-01-28T09:06:33Z</time></trkpt><trkpt lat="39.538239" lon="-0.465452"><ele>110.69</ele><time>2012-01-28T09:06:35Z</time></trkpt><trkpt lat="39.538265" lon="-0.465481"><ele>111.17</ele><time>2012-01-28T09:06:37Z</time></trkpt><trkpt lat="39.538292" lon="-0.465545"><ele>111.17</ele><time>2012-01-28T09:06:40Z</time></trkpt><trkpt lat="39.538303" lon="-0.465580"><ele>111.17</ele><time>2012-01-28T09:06:47Z</time></trkpt><trkpt lat="39.538418" lon="-0.465767"><ele>111.65</ele><time>2012-01-28T09:06:59Z</time></trkpt><trkpt lat="39.538570" lon="-0.466007"><ele>112.61</ele><time>2012-01-28T09:07:09Z</time></trkpt><trkpt lat="39.538738" lon="-0.466219"><ele>113.09</ele><time>2012-01-28T09:07:23Z</time></trkpt><trkpt lat="39.538750" lon="-0.466232"><ele>113.09</ele><time>2012-01-28T09:07:24Z</time></trkpt><trkpt lat="39.538815" lon="-0.466292"><ele>113.09</ele><time>2012-01-28T09:07:29Z</time></trkpt><trkpt lat="39.538876" lon="-0.466340"><ele>113.57</ele><time>2012-01-28T09:07:33Z</time></trkpt><trkpt lat="39.539009" lon="-0.466523"><ele>114.05</ele><time>2012-01-28T09:07:43Z</time></trkpt><trkpt lat="39.539127" lon="-0.466769"><ele>115.01</ele><time>2012-01-28T09:07:55Z</time></trkpt><trkpt lat="39.539185" lon="-0.466898"><ele>115.50</ele><time>2012-01-28T09:08:03Z</time></trkpt><trkpt lat="39.539310" lon="-0.467218"><ele>116.46</ele><time>2012-01-28T09:08:16Z</time></trkpt><trkpt lat="39.539379" lon="-0.467391"><ele>116.46</ele><time>2012-01-28T09:08:22Z</time></trkpt><trkpt lat="39.539696" lon="-0.468002"><ele>115.50</ele><time>2012-01-28T09:08:38Z</time></trkpt><trkpt lat="39.540100" lon="-0.468792"><ele>113.57</ele><time>2012-01-28T09:08:53Z</time></trkpt><trkpt lat="39.540367" lon="-0.469614"><ele>112.13</ele><time>2012-01-28T09:09:06Z</time></trkpt><trkpt lat="39.540451" lon="-0.469836"><ele>111.65</ele><time>2012-01-28T09:09:09Z</time></trkpt><trkpt lat="39.540653" lon="-0.470170"><ele>110.69</ele><time>2012-01-28T09:09:14Z</time></trkpt><trkpt lat="39.540962" lon="-0.470432"><ele>109.25</ele><time>2012-01-28T09:09:20Z</time></trkpt><trkpt lat="39.541088" lon="-0.470589"><ele>108.77</ele><time>2012-01-28T09:09:23Z</time></trkpt><trkpt lat="39.541187" lon="-0.470858"><ele>107.32</ele><time>2012-01-28T09:09:28Z</time></trkpt><trkpt lat="39.541229" lon="-0.470972"><ele>106.84</ele><time>2012-01-28T09:09:30Z</time></trkpt><trkpt lat="39.541553" lon="-0.471385"><ele>104.92</ele><time>2012-01-28T09:09:37Z</time></trkpt><trkpt lat="39.541599" lon="-0.471611"><ele>104.92</ele><time>2012-01-28T09:09:40Z</time></trkpt><trkpt lat="39.541641" lon="-0.471877"><ele>104.44</ele><time>2012-01-28T09:09:44Z</time></trkpt><trkpt lat="39.541695" lon="-0.472078"><ele>104.44</ele><time>2012-01-28T09:09:47Z</time></trkpt><trkpt lat="39.541935" lon="-0.472512"><ele>104.92</ele><time>2012-01-28T09:09:59Z</time></trkpt><trkpt lat="39.541958" lon="-0.472543"><ele>105.40</ele><time>2012-01-28T09:10:11Z</time></trkpt><trkpt lat="39.542053" lon="-0.472755"><ele>105.40</ele><time>2012-01-28T09:10:16Z</time></trkpt><trkpt lat="39.542118" lon="-0.472872"><ele>105.40</ele><time>2012-01-28T09:10:18Z</time></trkpt><trkpt lat="39.542282" lon="-0.473103"><ele>104.44</ele><time>2012-01-28T09:10:22Z</time></trkpt><trkpt lat="39.542545" lon="-0.473287"><ele>103.48</ele><time>2012-01-28T09:10:27Z</time></trkpt><trkpt lat="39.542698" lon="-0.473352"><ele>103.00</ele><time>2012-01-28T09:10:30Z</time></trkpt><trkpt lat="39.542912" lon="-0.473379"><ele>102.52</ele><time>2012-01-28T09:10:34Z</time></trkpt><trkpt lat="39.543106" lon="-0.473375"><ele>102.04</ele><time>2012-01-28T09:10:38Z</time></trkpt><trkpt lat="39.543392" lon="-0.473754"><ele>101.56</ele><time>2012-01-28T09:10:46Z</time></trkpt><trkpt lat="39.543457" lon="-0.473902"><ele>101.08</ele><time>2012-01-28T09:10:48Z</time></trkpt><trkpt lat="39.543720" lon="-0.474372"><ele>99.63</ele><time>2012-01-28T09:10:56Z</time></trkpt><trkpt lat="39.544067" lon="-0.474466"><ele>100.11</ele><time>2012-01-28T09:11:03Z</time></trkpt><trkpt lat="39.544170" lon="-0.474679"><ele>99.15</ele><time>2012-01-28T09:11:08Z</time></trkpt><trkpt lat="39.544106" lon="-0.474874"><ele>98.19</ele><time>2012-01-28T09:11:12Z</time></trkpt><trkpt lat="39.543953" lon="-0.475326"><ele>96.27</ele><time>2012-01-28T09:11:18Z</time></trkpt><trkpt lat="39.543934" lon="-0.475482"><ele>95.79</ele><time>2012-01-28T09:11:20Z</time></trkpt><trkpt lat="39.543915" lon="-0.475913"><ele>95.31</ele><time>2012-01-28T09:11:27Z</time></trkpt><trkpt lat="39.543819" lon="-0.476165"><ele>94.35</ele><time>2012-01-28T09:11:32Z</time></trkpt><trkpt lat="39.543842" lon="-0.476422"><ele>93.87</ele><time>2012-01-28T09:11:39Z</time></trkpt><trkpt lat="39.544033" lon="-0.476447"><ele>94.35</ele><time>2012-01-28T09:11:43Z</time></trkpt><trkpt lat="39.544144" lon="-0.476676"><ele>94.83</ele><time>2012-01-28T09:11:50Z</time></trkpt><trkpt lat="39.544151" lon="-0.476767"><ele>94.83</ele><time>2012-01-28T09:11:52Z</time></trkpt><trkpt lat="39.544113" lon="-0.477155"><ele>95.31</ele><time>2012-01-28T09:12:02Z</time></trkpt><trkpt lat="39.544083" lon="-0.477303"><ele>95.31</ele><time>2012-01-28T09:12:13Z</time></trkpt><trkpt lat="39.544067" lon="-0.477597"><ele>94.83</ele><time>2012-01-28T09:12:24Z</time></trkpt><trkpt lat="39.543991" lon="-0.478282"><ele>94.35</ele><time>2012-01-28T09:12:32Z</time></trkpt><trkpt lat="39.544117" lon="-0.478700"><ele>94.83</ele><time>2012-01-28T09:12:39Z</time></trkpt><trkpt lat="39.544388" lon="-0.479183"><ele>94.83</ele><time>2012-01-28T09:12:52Z</time></trkpt><trkpt lat="39.544384" lon="-0.479584"><ele>96.27</ele><time>2012-01-28T09:13:03Z</time></trkpt><trkpt lat="39.544376" lon="-0.480063"><ele>98.67</ele><time>2012-01-28T09:13:13Z</time></trkpt><trkpt lat="39.544388" lon="-0.480602"><ele>101.08</ele><time>2012-01-28T09:13:25Z</time></trkpt><trkpt lat="39.544373" lon="-0.480683"><ele>101.56</ele><time>2012-01-28T09:13:28Z</time></trkpt><trkpt lat="39.544369" lon="-0.480892"><ele>103.48</ele><time>2012-01-28T09:13:37Z</time></trkpt><trkpt lat="39.544376" lon="-0.481050"><ele>105.40</ele><time>2012-01-28T09:13:45Z</time></trkpt><trkpt lat="39.544361" lon="-0.481199"><ele>105.88</ele><time>2012-01-28T09:13:51Z</time></trkpt><trkpt lat="39.544392" lon="-0.481363"><ele>110.21</ele><time>2012-01-28T09:13:59Z</time></trkpt><trkpt lat="39.544392" lon="-0.481423"><ele>111.65</ele><time>2012-01-28T09:14:02Z</time></trkpt><trkpt lat="39.544357" lon="-0.481469"><ele>112.61</ele><time>2012-01-28T09:14:05Z</time></trkpt><trkpt lat="39.544384" lon="-0.481654"><ele>113.57</ele><time>2012-01-28T09:14:13Z</time></trkpt><trkpt lat="39.544365" lon="-0.481760"><ele>113.09</ele><time>2012-01-28T09:14:18Z</time></trkpt><trkpt lat="39.544388" lon="-0.482066"><ele>111.65</ele><time>2012-01-28T09:14:30Z</time></trkpt><trkpt lat="39.544395" lon="-0.482350"><ele>111.17</ele><time>2012-01-28T09:14:41Z</time></trkpt><trkpt lat="39.544384" lon="-0.482607"><ele>111.17</ele><time>2012-01-28T09:14:53Z</time></trkpt><trkpt lat="39.544395" lon="-0.482728"><ele>110.69</ele><time>2012-01-28T09:14:58Z</time></trkpt><trkpt lat="39.544384" lon="-0.482830"><ele>110.21</ele><time>2012-01-28T09:15:04Z</time></trkpt><trkpt lat="39.544392" lon="-0.483254"><ele>110.21</ele><time>2012-01-28T09:15:17Z</time></trkpt><trkpt lat="39.544392" lon="-0.483429"><ele>110.21</ele><time>2012-01-28T09:15:23Z</time></trkpt><trkpt lat="39.544392" lon="-0.483789"><ele>110.69</ele><time>2012-01-28T09:15:32Z</time></trkpt><trkpt lat="39.544395" lon="-0.483957"><ele>111.17</ele><time>2012-01-28T09:15:37Z</time></trkpt><trkpt lat="39.544369" lon="-0.484101"><ele>111.65</ele><time>2012-01-28T09:15:43Z</time></trkpt><trkpt lat="39.544365" lon="-0.484187"><ele>111.65</ele><time>2012-01-28T09:15:46Z</time></trkpt><trkpt lat="39.544411" lon="-0.484357"><ele>112.61</ele><time>2012-01-28T09:15:52Z</time></trkpt><trkpt lat="39.544411" lon="-0.484563"><ele>113.09</ele><time>2012-01-28T09:15:58Z</time></trkpt><trkpt lat="39.544403" lon="-0.484692"><ele>113.57</ele><time>2012-01-28T09:16:02Z</time></trkpt><trkpt lat="39.544384" lon="-0.485266"><ele>114.53</ele><time>2012-01-28T09:16:19Z</time></trkpt><trkpt lat="39.544380" lon="-0.485367"><ele>115.01</ele><time>2012-01-28T09:16:22Z</time></trkpt><trkpt lat="39.544449" lon="-0.485393"><ele>115.98</ele><time>2012-01-28T09:16:26Z</time></trkpt><trkpt lat="39.544548" lon="-0.485353"><ele>115.98</ele><time>2012-01-28T09:16:30Z</time></trkpt><trkpt lat="39.544632" lon="-0.485477"><ele>116.94</ele><time>2012-01-28T09:16:35Z</time></trkpt><trkpt lat="39.544704" lon="-0.485966"><ele>118.38</ele><time>2012-01-28T09:16:49Z</time></trkpt><trkpt lat="39.544762" lon="-0.486429"><ele>120.30</ele><time>2012-01-28T09:17:01Z</time></trkpt><trkpt lat="39.544823" lon="-0.486922"><ele>122.71</ele><time>2012-01-28T09:17:15Z</time></trkpt><trkpt lat="39.544838" lon="-0.486989"><ele>122.71</ele><time>2012-01-28T09:17:26Z</time></trkpt><trkpt lat="39.544838" lon="-0.486989"><ele>122.71</ele><time>2012-01-28T09:17:49Z</time></trkpt><trkpt lat="39.544838" lon="-0.486989"><ele>122.71</ele><time>2012-01-28T09:18:06Z</time></trkpt><trkpt lat="39.544880" lon="-0.487076"><ele>122.22</ele><time>2012-01-28T09:18:19Z</time></trkpt><trkpt lat="39.544910" lon="-0.487173"><ele>121.74</ele><time>2012-01-28T09:18:24Z</time></trkpt><trkpt lat="39.545105" lon="-0.487589"><ele>120.30</ele><time>2012-01-28T09:18:40Z</time></trkpt><trkpt lat="39.545246" lon="-0.488014"><ele>121.74</ele><time>2012-01-28T09:18:53Z</time></trkpt><trkpt lat="39.545078" lon="-0.488371"><ele>120.30</ele><time>2012-01-28T09:19:04Z</time></trkpt><trkpt lat="39.544895" lon="-0.488805"><ele>120.78</ele><time>2012-01-28T09:19:18Z</time></trkpt><trkpt lat="39.544937" lon="-0.489228"><ele>120.30</ele><time>2012-01-28T09:19:29Z</time></trkpt><trkpt lat="39.544849" lon="-0.489935"><ele>119.34</ele><time>2012-01-28T09:19:44Z</time></trkpt><trkpt lat="39.544792" lon="-0.490326"><ele>118.86</ele><time>2012-01-28T09:19:50Z</time></trkpt><trkpt lat="39.544750" lon="-0.490523"><ele>118.86</ele><time>2012-01-28T09:19:53Z</time></trkpt><trkpt lat="39.544720" lon="-0.490681"><ele>118.86</ele><time>2012-01-28T09:19:56Z</time></trkpt><trkpt lat="39.544792" lon="-0.491189"><ele>117.90</ele><time>2012-01-28T09:20:05Z</time></trkpt><trkpt lat="39.544815" lon="-0.491390"><ele>117.90</ele><time>2012-01-28T09:20:08Z</time></trkpt><trkpt lat="39.544811" lon="-0.491579"><ele>117.90</ele><time>2012-01-28T09:20:11Z</time></trkpt><trkpt lat="39.544655" lon="-0.491874"><ele>117.90</ele><time>2012-01-28T09:20:20Z</time></trkpt><trkpt lat="39.544559" lon="-0.491945"><ele>117.42</ele><time>2012-01-28T09:20:23Z</time></trkpt><trkpt lat="39.544289" lon="-0.492105"><ele>116.46</ele><time>2012-01-28T09:20:30Z</time></trkpt><trkpt lat="39.543896" lon="-0.492393"><ele>115.01</ele><time>2012-01-28T09:20:42Z</time></trkpt><trkpt lat="39.543629" lon="-0.492257"><ele>113.57</ele><time>2012-01-28T09:20:52Z</time></trkpt><trkpt lat="39.543533" lon="-0.492170"><ele>113.09</ele><time>2012-01-28T09:20:55Z</time></trkpt><trkpt lat="39.543438" lon="-0.492242"><ele>112.61</ele><time>2012-01-28T09:20:59Z</time></trkpt><trkpt lat="39.543289" lon="-0.492504"><ele>109.73</ele><time>2012-01-28T09:21:05Z</time></trkpt><trkpt lat="39.543140" lon="-0.492747"><ele>107.81</ele><time>2012-01-28T09:21:11Z</time></trkpt><trkpt lat="39.542980" lon="-0.492753"><ele>107.81</ele><time>2012-01-28T09:21:15Z</time></trkpt><trkpt lat="39.542793" lon="-0.492728"><ele>108.29</ele><time>2012-01-28T09:21:19Z</time></trkpt><trkpt lat="39.542511" lon="-0.492715"><ele>108.29</ele><time>2012-01-28T09:21:27Z</time></trkpt><trkpt lat="39.542339" lon="-0.492684"><ele>110.69</ele><time>2012-01-28T09:21:35Z</time></trkpt><trkpt lat="39.542236" lon="-0.492722"><ele>110.21</ele><time>2012-01-28T09:21:39Z</time></trkpt><trkpt lat="39.542206" lon="-0.492791"><ele>111.17</ele><time>2012-01-28T09:21:44Z</time></trkpt><trkpt lat="39.542049" lon="-0.492845"><ele>110.69</ele><time>2012-01-28T09:21:51Z</time></trkpt><trkpt lat="39.542034" lon="-0.493228"><ele>109.73</ele><time>2012-01-28T09:21:59Z</time></trkpt><trkpt lat="39.541920" lon="-0.493467"><ele>108.77</ele><time>2012-01-28T09:22:05Z</time></trkpt><trkpt lat="39.541706" lon="-0.493557"><ele>108.29</ele><time>2012-01-28T09:22:11Z</time></trkpt><trkpt lat="39.541618" lon="-0.493575"><ele>107.81</ele><time>2012-01-28T09:22:13Z</time></trkpt><trkpt lat="39.541481" lon="-0.493684"><ele>106.84</ele><time>2012-01-28T09:22:17Z</time></trkpt><trkpt lat="39.541405" lon="-0.493844"><ele>107.32</ele><time>2012-01-28T09:22:21Z</time></trkpt><trkpt lat="39.541389" lon="-0.494050"><ele>107.32</ele><time>2012-01-28T09:22:26Z</time></trkpt><trkpt lat="39.541340" lon="-0.494199"><ele>106.84</ele><time>2012-01-28T09:22:31Z</time></trkpt><trkpt lat="39.541271" lon="-0.494334"><ele>108.77</ele><time>2012-01-28T09:22:36Z</time></trkpt><trkpt lat="39.541210" lon="-0.494537"><ele>109.25</ele><time>2012-01-28T09:22:43Z</time></trkpt><trkpt lat="39.541126" lon="-0.494941"><ele>112.61</ele><time>2012-01-28T09:22:56Z</time></trkpt><trkpt lat="39.541111" lon="-0.495017"><ele>113.09</ele><time>2012-01-28T09:22:58Z</time></trkpt><trkpt lat="39.541164" lon="-0.495265"><ele>115.50</ele><time>2012-01-28T09:23:05Z</time></trkpt><trkpt lat="39.541180" lon="-0.495670"><ele>115.50</ele><time>2012-01-28T09:23:16Z</time></trkpt><trkpt lat="39.541252" lon="-0.495748"><ele>115.01</ele><time>2012-01-28T09:23:19Z</time></trkpt><trkpt lat="39.541229" lon="-0.495897"><ele>114.05</ele><time>2012-01-28T09:23:24Z</time></trkpt><trkpt lat="39.541130" lon="-0.495954"><ele>114.05</ele><time>2012-01-28T09:23:30Z</time></trkpt><trkpt lat="39.540943" lon="-0.496080"><ele>114.53</ele><time>2012-01-28T09:23:41Z</time></trkpt><trkpt lat="39.540771" lon="-0.496183"><ele>114.53</ele><time>2012-01-28T09:23:49Z</time></trkpt><trkpt lat="39.540730" lon="-0.496195"><ele>114.05</ele><time>2012-01-28T09:23:51Z</time></trkpt><trkpt lat="39.540695" lon="-0.496218"><ele>114.05</ele><time>2012-01-28T09:23:53Z</time></trkpt><trkpt lat="39.540588" lon="-0.496284"><ele>114.05</ele><time>2012-01-28T09:24:03Z</time></trkpt><trkpt lat="39.540550" lon="-0.496314"><ele>114.53</ele><time>2012-01-28T09:24:07Z</time></trkpt><trkpt lat="39.540413" lon="-0.496396"><ele>114.05</ele><time>2012-01-28T09:24:16Z</time></trkpt><trkpt lat="39.540413" lon="-0.496524"><ele>113.57</ele><time>2012-01-28T09:24:21Z</time></trkpt><trkpt lat="39.540413" lon="-0.496588"><ele>113.57</ele><time>2012-01-28T09:24:24Z</time></trkpt><trkpt lat="39.540421" lon="-0.496633"><ele>113.57</ele><time>2012-01-28T09:24:27Z</time></trkpt><trkpt lat="39.540447" lon="-0.496749"><ele>112.61</ele><time>2012-01-28T09:24:33Z</time></trkpt><trkpt lat="39.540443" lon="-0.496806"><ele>112.13</ele><time>2012-01-28T09:24:45Z</time></trkpt><trkpt lat="39.540455" lon="-0.496845"><ele>112.61</ele><time>2012-01-28T09:24:55Z</time></trkpt><trkpt lat="39.540466" lon="-0.496886"><ele>112.61</ele><time>2012-01-28T09:25:05Z</time></trkpt><trkpt lat="39.540554" lon="-0.497049"><ele>112.61</ele><time>2012-01-28T09:25:16Z</time></trkpt><trkpt lat="39.540604" lon="-0.497110"><ele>112.61</ele><time>2012-01-28T09:25:23Z</time></trkpt><trkpt lat="39.540657" lon="-0.497274"><ele>112.13</ele><time>2012-01-28T09:25:35Z</time></trkpt><trkpt lat="39.540649" lon="-0.497333"><ele>111.65</ele><time>2012-01-28T09:25:58Z</time></trkpt><trkpt lat="39.540630" lon="-0.497417"><ele>110.69</ele><time>2012-01-28T09:26:02Z</time></trkpt><trkpt lat="39.540646" lon="-0.497448"><ele>110.21</ele><time>2012-01-28T09:26:05Z</time></trkpt><trkpt lat="39.540646" lon="-0.497547"><ele>109.25</ele><time>2012-01-28T09:26:11Z</time></trkpt><trkpt lat="39.540665" lon="-0.497666"><ele>108.29</ele><time>2012-01-28T09:26:20Z</time></trkpt><trkpt lat="39.540684" lon="-0.497742"><ele>107.81</ele><time>2012-01-28T09:26:31Z</time></trkpt><trkpt lat="39.540684" lon="-0.497744"><ele>107.81</ele><time>2012-01-28T09:26:46Z</time></trkpt><trkpt lat="39.540684" lon="-0.497744"><ele>107.81</ele><time>2012-01-28T09:26:54Z</time></trkpt><trkpt lat="39.540924" lon="-0.497921"><ele>106.36</ele><time>2012-01-28T09:27:07Z</time></trkpt><trkpt lat="39.541016" lon="-0.497966"><ele>106.36</ele><time>2012-01-28T09:27:10Z</time></trkpt><trkpt lat="39.541069" lon="-0.498106"><ele>105.88</ele><time>2012-01-28T09:27:14Z</time></trkpt><trkpt lat="39.541180" lon="-0.498574"><ele>105.40</ele><time>2012-01-28T09:27:25Z</time></trkpt><trkpt lat="39.541199" lon="-0.498634"><ele>105.40</ele><time>2012-01-28T09:27:27Z</time></trkpt><trkpt lat="39.541191" lon="-0.498714"><ele>105.40</ele><time>2012-01-28T09:27:30Z</time></trkpt><trkpt lat="39.541157" lon="-0.498825"><ele>104.92</ele><time>2012-01-28T09:27:34Z</time></trkpt><trkpt lat="39.541157" lon="-0.498906"><ele>104.92</ele><time>2012-01-28T09:27:37Z</time></trkpt><trkpt lat="39.541042" lon="-0.499132"><ele>103.96</ele><time>2012-01-28T09:27:46Z</time></trkpt><trkpt lat="39.541138" lon="-0.499342"><ele>103.00</ele><time>2012-01-28T09:27:54Z</time></trkpt><trkpt lat="39.541210" lon="-0.499444"><ele>103.00</ele><time>2012-01-28T09:27:58Z</time></trkpt><trkpt lat="39.541351" lon="-0.499608"><ele>102.52</ele><time>2012-01-28T09:28:03Z</time></trkpt><trkpt lat="39.541451" lon="-0.499801"><ele>101.08</ele><time>2012-01-28T09:28:08Z</time></trkpt><trkpt lat="39.541573" lon="-0.500014"><ele>99.63</ele><time>2012-01-28T09:28:14Z</time></trkpt><trkpt lat="39.541656" lon="-0.500094"><ele>100.11</ele><time>2012-01-28T09:28:27Z</time></trkpt><trkpt lat="39.541656" lon="-0.500094"><ele>100.11</ele><time>2012-01-28T09:28:43Z</time></trkpt><trkpt lat="39.541828" lon="-0.500229"><ele>100.60</ele><time>2012-01-28T09:28:54Z</time></trkpt><trkpt lat="39.541870" lon="-0.500247"><ele>100.60</ele><time>2012-01-28T09:28:56Z</time></trkpt><trkpt lat="39.541950" lon="-0.500314"><ele>100.11</ele><time>2012-01-28T09:29:00Z</time></trkpt><trkpt lat="39.542095" lon="-0.500291"><ele>101.08</ele><time>2012-01-28T09:29:04Z</time></trkpt><trkpt lat="39.542343" lon="-0.500449"><ele>101.08</ele><time>2012-01-28T09:29:13Z</time></trkpt><trkpt lat="39.542454" lon="-0.500374"><ele>102.04</ele><time>2012-01-28T09:29:21Z</time></trkpt><trkpt lat="39.542458" lon="-0.500375"><ele>102.04</ele><time>2012-01-28T09:29:23Z</time></trkpt><trkpt lat="39.542534" lon="-0.500355"><ele>102.52</ele><time>2012-01-28T09:29:33Z</time></trkpt><trkpt lat="39.542583" lon="-0.500345"><ele>103.00</ele><time>2012-01-28T09:29:36Z</time></trkpt><trkpt lat="39.542713" lon="-0.500370"><ele>102.52</ele><time>2012-01-28T09:29:42Z</time></trkpt><trkpt lat="39.542957" lon="-0.500385"><ele>103.48</ele><time>2012-01-28T09:29:55Z</time></trkpt><trkpt lat="39.543079" lon="-0.500385"><ele>104.92</ele><time>2012-01-28T09:30:02Z</time></trkpt><trkpt lat="39.543228" lon="-0.500445"><ele>104.44</ele><time>2012-01-28T09:30:08Z</time></trkpt><trkpt lat="39.543297" lon="-0.500441"><ele>104.44</ele><time>2012-01-28T09:30:11Z</time></trkpt><trkpt lat="39.543350" lon="-0.500259"><ele>104.44</ele><time>2012-01-28T09:30:20Z</time></trkpt><trkpt lat="39.543335" lon="-0.500210"><ele>104.92</ele><time>2012-01-28T09:30:22Z</time></trkpt><trkpt lat="39.543358" lon="-0.500164"><ele>104.92</ele><time>2012-01-28T09:30:30Z</time></trkpt><trkpt lat="39.543430" lon="-0.500470"><ele>105.88</ele><time>2012-01-28T09:30:41Z</time></trkpt><trkpt lat="39.543575" lon="-0.500614"><ele>105.40</ele><time>2012-01-28T09:30:47Z</time></trkpt><trkpt lat="39.543858" lon="-0.500623"><ele>105.40</ele><time>2012-01-28T09:30:52Z</time></trkpt><trkpt lat="39.544090" lon="-0.500632"><ele>105.40</ele><time>2012-01-28T09:30:58Z</time></trkpt><trkpt lat="39.544125" lon="-0.500625"><ele>105.40</ele><time>2012-01-28T09:31:00Z</time></trkpt><trkpt lat="39.544304" lon="-0.500390"><ele>105.88</ele><time>2012-01-28T09:31:09Z</time></trkpt><trkpt lat="39.544556" lon="-0.500242"><ele>107.81</ele><time>2012-01-28T09:31:19Z</time></trkpt><trkpt lat="39.544575" lon="-0.500214"><ele>107.81</ele><time>2012-01-28T09:31:20Z</time></trkpt><trkpt lat="39.544636" lon="-0.500041"><ele>108.77</ele><time>2012-01-28T09:31:25Z</time></trkpt><trkpt lat="39.544735" lon="-0.499959"><ele>108.29</ele><time>2012-01-28T09:31:29Z</time></trkpt><trkpt lat="39.544903" lon="-0.499881"><ele>109.73</ele><time>2012-01-28T09:31:35Z</time></trkpt><trkpt lat="39.545166" lon="-0.499828"><ele>110.69</ele><time>2012-01-28T09:31:44Z</time></trkpt><trkpt lat="39.545261" lon="-0.499975"><ele>110.69</ele><time>2012-01-28T09:31:51Z</time></trkpt><trkpt lat="39.545517" lon="-0.500172"><ele>110.69</ele><time>2012-01-28T09:32:02Z</time></trkpt><trkpt lat="39.545834" lon="-0.500199"><ele>112.61</ele><time>2012-01-28T09:32:12Z</time></trkpt><trkpt lat="39.546223" lon="-0.500182"><ele>113.57</ele><time>2012-01-28T09:32:25Z</time></trkpt><trkpt lat="39.546288" lon="-0.500187"><ele>113.57</ele><time>2012-01-28T09:32:27Z</time></trkpt><trkpt lat="39.546490" lon="-0.500199"><ele>113.57</ele><time>2012-01-28T09:32:35Z</time></trkpt><trkpt lat="39.546600" lon="-0.500211"><ele>113.57</ele><time>2012-01-28T09:32:40Z</time></trkpt><trkpt lat="39.546795" lon="-0.500246"><ele>114.05</ele><time>2012-01-28T09:32:53Z</time></trkpt><trkpt lat="39.546837" lon="-0.500272"><ele>114.05</ele><time>2012-01-28T09:32:56Z</time></trkpt><trkpt lat="39.547039" lon="-0.500478"><ele>113.09</ele><time>2012-01-28T09:33:07Z</time></trkpt><trkpt lat="39.547161" lon="-0.500925"><ele>113.09</ele><time>2012-01-28T09:33:16Z</time></trkpt><trkpt lat="39.547390" lon="-0.501245"><ele>115.01</ele><time>2012-01-28T09:33:24Z</time></trkpt><trkpt lat="39.547600" lon="-0.501442"><ele>116.46</ele><time>2012-01-28T09:33:32Z</time></trkpt><trkpt lat="39.547997" lon="-0.501774"><ele>117.42</ele><time>2012-01-28T09:33:45Z</time></trkpt><trkpt lat="39.548126" lon="-0.501977"><ele>116.46</ele><time>2012-01-28T09:33:54Z</time></trkpt><trkpt lat="39.548042" lon="-0.502165"><ele>115.01</ele><time>2012-01-28T09:34:00Z</time></trkpt><trkpt lat="39.547974" lon="-0.502360"><ele>113.57</ele><time>2012-01-28T09:34:04Z</time></trkpt><trkpt lat="39.547905" lon="-0.502504"><ele>113.09</ele><time>2012-01-28T09:34:07Z</time></trkpt><trkpt lat="39.547928" lon="-0.502811"><ele>112.61</ele><time>2012-01-28T09:34:12Z</time></trkpt><trkpt lat="39.548004" lon="-0.502974"><ele>112.61</ele><time>2012-01-28T09:34:15Z</time></trkpt><trkpt lat="39.548119" lon="-0.503500"><ele>113.57</ele><time>2012-01-28T09:34:27Z</time></trkpt><trkpt lat="39.548176" lon="-0.503679"><ele>111.65</ele><time>2012-01-28T09:34:33Z</time></trkpt><trkpt lat="39.548206" lon="-0.503843"><ele>108.29</ele><time>2012-01-28T09:34:36Z</time></trkpt><trkpt lat="39.548279" lon="-0.504148"><ele>104.92</ele><time>2012-01-28T09:34:43Z</time></trkpt><trkpt lat="39.548279" lon="-0.504149"><ele>104.92</ele><time>2012-01-28T09:34:52Z</time></trkpt><trkpt lat="39.548187" lon="-0.504124"><ele>105.40</ele><time>2012-01-28T09:34:57Z</time></trkpt><trkpt lat="39.548084" lon="-0.503930"><ele>106.84</ele><time>2012-01-28T09:35:04Z</time></trkpt><trkpt lat="39.548096" lon="-0.503784"><ele>109.73</ele><time>2012-01-28T09:35:15Z</time></trkpt><trkpt lat="39.548126" lon="-0.503728"><ele>111.65</ele><time>2012-01-28T09:35:21Z</time></trkpt><trkpt lat="39.548141" lon="-0.503625"><ele>112.61</ele><time>2012-01-28T09:35:37Z</time></trkpt><trkpt lat="39.548138" lon="-0.503629"><ele>112.61</ele><time>2012-01-28T09:35:47Z</time></trkpt><trkpt lat="39.548122" lon="-0.503661"><ele>113.09</ele><time>2012-01-28T09:35:58Z</time></trkpt><trkpt lat="39.548122" lon="-0.503661"><ele>113.09</ele><time>2012-01-28T09:36:28Z</time></trkpt><trkpt lat="39.548122" lon="-0.503662"><ele>113.09</ele><time>2012-01-28T09:36:57Z</time></trkpt><trkpt lat="39.548122" lon="-0.503665"><ele>113.09</ele><time>2012-01-28T09:37:25Z</time></trkpt><trkpt lat="39.548122" lon="-0.503664"><ele>113.09</ele><time>2012-01-28T09:37:47Z</time></trkpt><trkpt lat="39.548122" lon="-0.503662"><ele>112.61</ele><time>2012-01-28T09:38:28Z</time></trkpt><trkpt lat="39.548119" lon="-0.503666"><ele>112.61</ele><time>2012-01-28T09:39:04Z</time></trkpt><trkpt lat="39.548119" lon="-0.503663"><ele>113.09</ele><time>2012-01-28T09:39:41Z</time></trkpt><trkpt lat="39.548119" lon="-0.503663"><ele>113.09</ele><time>2012-01-28T09:40:16Z</time></trkpt><trkpt lat="39.548122" lon="-0.503666"><ele>113.09</ele><time>2012-01-28T09:40:43Z</time></trkpt><trkpt lat="39.548122" lon="-0.503666"><ele>113.09</ele><time>2012-01-28T09:41:12Z</time></trkpt><trkpt lat="39.548122" lon="-0.503661"><ele>113.09</ele><time>2012-01-28T09:41:49Z</time></trkpt><trkpt lat="39.548122" lon="-0.503651"><ele>113.09</ele><time>2012-01-28T09:42:38Z</time></trkpt><trkpt lat="39.548122" lon="-0.503651"><ele>113.09</ele><time>2012-01-28T09:43:12Z</time></trkpt><trkpt lat="39.548122" lon="-0.503655"><ele>113.09</ele><time>2012-01-28T09:43:39Z</time></trkpt><trkpt lat="39.548122" lon="-0.503656"><ele>113.09</ele><time>2012-01-28T09:44:19Z</time></trkpt><trkpt lat="39.548122" lon="-0.503662"><ele>113.09</ele><time>2012-01-28T09:44:53Z</time></trkpt><trkpt lat="39.548119" lon="-0.503662"><ele>113.09</ele><time>2012-01-28T09:45:27Z</time></trkpt><trkpt lat="39.548119" lon="-0.503660"><ele>113.09</ele><time>2012-01-28T09:45:46Z</time></trkpt><trkpt lat="39.548122" lon="-0.503660"><ele>112.61</ele><time>2012-01-28T09:45:58Z</time></trkpt><trkpt lat="39.548229" lon="-0.504006"><ele>106.84</ele><time>2012-01-28T09:46:06Z</time></trkpt><trkpt lat="39.548279" lon="-0.504131"><ele>105.40</ele><time>2012-01-28T09:46:08Z</time></trkpt><trkpt lat="39.548199" lon="-0.504153"><ele>105.40</ele><time>2012-01-28T09:46:14Z</time></trkpt><trkpt lat="39.548119" lon="-0.503973"><ele>107.32</ele><time>2012-01-28T09:46:21Z</time></trkpt><trkpt lat="39.548180" lon="-0.503903"><ele>108.29</ele><time>2012-01-28T09:46:27Z</time></trkpt><trkpt lat="39.548218" lon="-0.503923"><ele>108.77</ele><time>2012-01-28T09:46:30Z</time></trkpt><trkpt lat="39.548252" lon="-0.504030"><ele>107.81</ele><time>2012-01-28T09:46:34Z</time></trkpt><trkpt lat="39.548424" lon="-0.504362"><ele>105.88</ele><time>2012-01-28T09:46:45Z</time></trkpt><trkpt lat="39.548435" lon="-0.504391"><ele>105.40</ele><time>2012-01-28T09:46:46Z</time></trkpt><trkpt lat="39.548336" lon="-0.504391"><ele>104.92</ele><time>2012-01-28T09:46:53Z</time></trkpt><trkpt lat="39.548328" lon="-0.504268"><ele>105.88</ele><time>2012-01-28T09:46:57Z</time></trkpt><trkpt lat="39.548298" lon="-0.504183"><ele>106.84</ele><time>2012-01-28T09:47:03Z</time></trkpt><trkpt lat="39.548168" lon="-0.504078"><ele>107.81</ele><time>2012-01-28T09:47:12Z</time></trkpt><trkpt lat="39.548134" lon="-0.503982"><ele>108.29</ele><time>2012-01-28T09:47:15Z</time></trkpt><trkpt lat="39.548252" lon="-0.503983"><ele>108.29</ele><time>2012-01-28T09:47:23Z</time></trkpt><trkpt lat="39.548264" lon="-0.504022"><ele>108.29</ele><time>2012-01-28T09:47:24Z</time></trkpt><trkpt lat="39.548325" lon="-0.504185"><ele>107.32</ele><time>2012-01-28T09:47:28Z</time></trkpt><trkpt lat="39.548443" lon="-0.504423"><ele>106.36</ele><time>2012-01-28T09:47:33Z</time></trkpt><trkpt lat="39.548462" lon="-0.504540"><ele>105.88</ele><time>2012-01-28T09:47:39Z</time></trkpt><trkpt lat="39.548504" lon="-0.504592"><ele>105.88</ele><time>2012-01-28T09:47:43Z</time></trkpt><trkpt lat="39.548523" lon="-0.504655"><ele>104.92</ele><time>2012-01-28T09:47:45Z</time></trkpt><trkpt lat="39.548531" lon="-0.504837"><ele>103.96</ele><time>2012-01-28T09:47:48Z</time></trkpt><trkpt lat="39.548431" lon="-0.505149"><ele>103.48</ele><time>2012-01-28T09:47:54Z</time></trkpt><trkpt lat="39.548286" lon="-0.505306"><ele>103.48</ele><time>2012-01-28T09:47:59Z</time></trkpt><trkpt lat="39.548218" lon="-0.505477"><ele>103.48</ele><time>2012-01-28T09:48:03Z</time></trkpt><trkpt lat="39.548195" lon="-0.505618"><ele>103.96</ele><time>2012-01-28T09:48:07Z</time></trkpt><trkpt lat="39.548279" lon="-0.505961"><ele>106.36</ele><time>2012-01-28T09:48:19Z</time></trkpt><trkpt lat="39.548325" lon="-0.506176"><ele>106.84</ele><time>2012-01-28T09:48:29Z</time></trkpt><trkpt lat="39.548336" lon="-0.506232"><ele>106.84</ele><time>2012-01-28T09:48:31Z</time></trkpt><trkpt lat="39.548267" lon="-0.506396"><ele>107.81</ele><time>2012-01-28T09:48:37Z</time></trkpt><trkpt lat="39.548260" lon="-0.506525"><ele>108.29</ele><time>2012-01-28T09:48:42Z</time></trkpt><trkpt lat="39.548248" lon="-0.506594"><ele>107.81</ele><time>2012-01-28T09:48:46Z</time></trkpt><trkpt lat="39.548138" lon="-0.506586"><ele>107.81</ele><time>2012-01-28T09:48:53Z</time></trkpt><trkpt lat="39.548065" lon="-0.506940"><ele>106.36</ele><time>2012-01-28T09:49:01Z</time></trkpt><trkpt lat="39.548084" lon="-0.507278"><ele>105.40</ele><time>2012-01-28T09:49:06Z</time></trkpt><trkpt lat="39.548046" lon="-0.507633"><ele>104.44</ele><time>2012-01-28T09:49:14Z</time></trkpt><trkpt lat="39.547966" lon="-0.507874"><ele>100.60</ele><time>2012-01-28T09:49:24Z</time></trkpt><trkpt lat="39.547894" lon="-0.507908"><ele>99.63</ele><time>2012-01-28T09:49:27Z</time></trkpt><trkpt lat="39.547695" lon="-0.508032"><ele>97.23</ele><time>2012-01-28T09:49:36Z</time></trkpt><trkpt lat="39.547520" lon="-0.508117"><ele>97.23</ele><time>2012-01-28T09:49:46Z</time></trkpt><trkpt lat="39.547459" lon="-0.508133"><ele>96.75</ele><time>2012-01-28T09:49:50Z</time></trkpt><trkpt lat="39.547333" lon="-0.508243"><ele>95.31</ele><time>2012-01-28T09:50:00Z</time></trkpt><trkpt lat="39.547329" lon="-0.508196"><ele>95.31</ele><time>2012-01-28T09:50:10Z</time></trkpt><trkpt lat="39.547337" lon="-0.508187"><ele>95.31</ele><time>2012-01-28T09:50:12Z</time></trkpt><trkpt lat="39.547436" lon="-0.508139"><ele>94.83</ele><time>2012-01-28T09:50:17Z</time></trkpt><trkpt lat="39.547813" lon="-0.507931"><ele>95.31</ele><time>2012-01-28T09:50:27Z</time></trkpt><trkpt lat="39.547871" lon="-0.507904"><ele>96.27</ele><time>2012-01-28T09:50:36Z</time></trkpt><trkpt lat="39.547874" lon="-0.507910"><ele>95.79</ele><time>2012-01-28T09:50:49Z</time></trkpt><trkpt lat="39.547863" lon="-0.507919"><ele>95.79</ele><time>2012-01-28T09:50:51Z</time></trkpt><trkpt lat="39.547764" lon="-0.507969"><ele>95.31</ele><time>2012-01-28T09:50:56Z</time></trkpt><trkpt lat="39.547443" lon="-0.508136"><ele>94.83</ele><time>2012-01-28T09:51:04Z</time></trkpt><trkpt lat="39.547287" lon="-0.508236"><ele>94.35</ele><time>2012-01-28T09:51:08Z</time></trkpt><trkpt lat="39.546906" lon="-0.508333"><ele>92.90</ele><time>2012-01-28T09:51:18Z</time></trkpt><trkpt lat="39.546574" lon="-0.508413"><ele>92.42</ele><time>2012-01-28T09:51:26Z</time></trkpt><trkpt lat="39.546402" lon="-0.508483"><ele>91.94</ele><time>2012-01-28T09:51:29Z</time></trkpt><trkpt lat="39.546085" lon="-0.508512"><ele>91.94</ele><time>2012-01-28T09:51:35Z</time></trkpt><trkpt lat="39.545956" lon="-0.508482"><ele>92.42</ele><time>2012-01-28T09:51:38Z</time></trkpt><trkpt lat="39.545807" lon="-0.508488"><ele>92.90</ele><time>2012-01-28T09:51:42Z</time></trkpt><trkpt lat="39.545712" lon="-0.508578"><ele>92.42</ele><time>2012-01-28T09:51:46Z</time></trkpt><trkpt lat="39.545738" lon="-0.508774"><ele>90.98</ele><time>2012-01-28T09:51:52Z</time></trkpt><trkpt lat="39.545784" lon="-0.509133"><ele>90.02</ele><time>2012-01-28T09:52:01Z</time></trkpt><trkpt lat="39.545780" lon="-0.509289"><ele>88.58</ele><time>2012-01-28T09:52:04Z</time></trkpt><trkpt lat="39.545757" lon="-0.509321"><ele>87.62</ele><time>2012-01-28T09:52:16Z</time></trkpt><trkpt lat="39.545753" lon="-0.509320"><ele>87.62</ele><time>2012-01-28T09:52:54Z</time></trkpt><trkpt lat="39.545753" lon="-0.509321"><ele>87.62</ele><time>2012-01-28T09:52:56Z</time></trkpt><trkpt lat="39.545746" lon="-0.509446"><ele>87.14</ele><time>2012-01-28T09:53:03Z</time></trkpt><trkpt lat="39.545788" lon="-0.509788"><ele>88.10</ele><time>2012-01-28T09:53:11Z</time></trkpt><trkpt lat="39.545601" lon="-0.510037"><ele>89.54</ele><time>2012-01-28T09:53:20Z</time></trkpt><trkpt lat="39.545597" lon="-0.510348"><ele>91.94</ele><time>2012-01-28T09:53:28Z</time></trkpt><trkpt lat="39.545582" lon="-0.510378"><ele>93.39</ele><time>2012-01-28T09:53:30Z</time></trkpt><trkpt lat="39.545555" lon="-0.510241"><ele>94.35</ele><time>2012-01-28T09:53:38Z</time></trkpt><trkpt lat="39.545513" lon="-0.510244"><ele>94.83</ele><time>2012-01-28T09:53:40Z</time></trkpt><trkpt lat="39.545380" lon="-0.510365"><ele>97.23</ele><time>2012-01-28T09:53:51Z</time></trkpt><trkpt lat="39.545181" lon="-0.510702"><ele>96.75</ele><time>2012-01-28T09:54:01Z</time></trkpt><trkpt lat="39.545147" lon="-0.510773"><ele>96.75</ele><time>2012-01-28T09:54:06Z</time></trkpt><trkpt lat="39.545063" lon="-0.510933"><ele>98.19</ele><time>2012-01-28T09:54:18Z</time></trkpt><trkpt lat="39.544910" lon="-0.511207"><ele>97.71</ele><time>2012-01-28T09:54:29Z</time></trkpt><trkpt lat="39.544819" lon="-0.511563"><ele>98.19</ele><time>2012-01-28T09:54:40Z</time></trkpt><trkpt lat="39.544701" lon="-0.511754"><ele>97.71</ele><time>2012-01-28T09:54:48Z</time></trkpt><trkpt lat="39.544682" lon="-0.511838"><ele>97.71</ele><time>2012-01-28T09:54:51Z</time></trkpt><trkpt lat="39.544571" lon="-0.511925"><ele>98.19</ele><time>2012-01-28T09:55:00Z</time></trkpt><trkpt lat="39.544495" lon="-0.512091"><ele>97.71</ele><time>2012-01-28T09:55:05Z</time></trkpt><trkpt lat="39.544395" lon="-0.512161"><ele>96.75</ele><time>2012-01-28T09:55:08Z</time></trkpt><trkpt lat="39.544147" lon="-0.512575"><ele>95.79</ele><time>2012-01-28T09:55:19Z</time></trkpt><trkpt lat="39.543961" lon="-0.512951"><ele>94.83</ele><time>2012-01-28T09:55:30Z</time></trkpt><trkpt lat="39.543758" lon="-0.513372"><ele>93.87</ele><time>2012-01-28T09:55:42Z</time></trkpt><trkpt lat="39.543732" lon="-0.513413"><ele>93.39</ele><time>2012-01-28T09:55:43Z</time></trkpt><trkpt lat="39.543751" lon="-0.513464"><ele>93.39</ele><time>2012-01-28T09:55:52Z</time></trkpt><trkpt lat="39.543751" lon="-0.513464"><ele>93.39</ele><time>2012-01-28T09:56:09Z</time></trkpt><trkpt lat="39.543747" lon="-0.513473"><ele>93.39</ele><time>2012-01-28T09:56:31Z</time></trkpt><trkpt lat="39.543747" lon="-0.513473"><ele>93.39</ele><time>2012-01-28T09:57:02Z</time></trkpt><trkpt lat="39.543747" lon="-0.513476"><ele>93.39</ele><time>2012-01-28T09:57:24Z</time></trkpt><trkpt lat="39.543747" lon="-0.513476"><ele>93.39</ele><time>2012-01-28T09:57:27Z</time></trkpt><trkpt lat="39.543789" lon="-0.513367"><ele>93.87</ele><time>2012-01-28T09:57:31Z</time></trkpt><trkpt lat="39.544010" lon="-0.512847"><ele>96.75</ele><time>2012-01-28T09:57:42Z</time></trkpt><trkpt lat="39.544033" lon="-0.512791"><ele>96.75</ele><time>2012-01-28T09:57:43Z</time></trkpt><trkpt lat="39.544155" lon="-0.512542"><ele>97.71</ele><time>2012-01-28T09:57:48Z</time></trkpt><trkpt lat="39.544220" lon="-0.512391"><ele>97.71</ele><time>2012-01-28T09:57:51Z</time></trkpt><trkpt lat="39.544327" lon="-0.512190"><ele>97.71</ele><time>2012-01-28T09:57:55Z</time></trkpt><trkpt lat="39.544647" lon="-0.511559"><ele>98.67</ele><time>2012-01-28T09:58:07Z</time></trkpt><trkpt lat="39.544830" lon="-0.511186"><ele>97.71</ele><time>2012-01-28T09:58:15Z</time></trkpt><trkpt lat="39.545071" lon="-0.510686"><ele>96.27</ele><time>2012-01-28T09:58:26Z</time></trkpt><trkpt lat="39.545097" lon="-0.510647"><ele>96.27</ele><time>2012-01-28T09:58:27Z</time></trkpt><trkpt lat="39.545284" lon="-0.510178"><ele>96.75</ele><time>2012-01-28T09:58:38Z</time></trkpt><trkpt lat="39.545223" lon="-0.509835"><ele>93.87</ele><time>2012-01-28T09:58:44Z</time></trkpt><trkpt lat="39.545216" lon="-0.509523"><ele>92.90</ele><time>2012-01-28T09:58:49Z</time></trkpt><trkpt lat="39.545208" lon="-0.509357"><ele>92.42</ele><time>2012-01-28T09:58:53Z</time></trkpt><trkpt lat="39.545097" lon="-0.509142"><ele>90.50</ele><time>2012-01-28T09:58:59Z</time></trkpt><trkpt lat="39.545067" lon="-0.508961"><ele>90.98</ele><time>2012-01-28T09:59:04Z</time></trkpt><trkpt lat="39.545067" lon="-0.508542"><ele>92.90</ele><time>2012-01-28T09:59:15Z</time></trkpt><trkpt lat="39.545139" lon="-0.508145"><ele>93.87</ele><time>2012-01-28T09:59:25Z</time></trkpt><trkpt lat="39.545067" lon="-0.508045"><ele>93.39</ele><time>2012-01-28T09:59:32Z</time></trkpt><trkpt lat="39.544930" lon="-0.507951"><ele>92.90</ele><time>2012-01-28T09:59:44Z</time></trkpt><trkpt lat="39.544727" lon="-0.507719"><ele>91.94</ele><time>2012-01-28T09:59:53Z</time></trkpt><trkpt lat="39.544708" lon="-0.507556"><ele>92.42</ele><time>2012-01-28T09:59:57Z</time></trkpt><trkpt lat="39.544624" lon="-0.507297"><ele>93.39</ele><time>2012-01-28T10:00:03Z</time></trkpt><trkpt lat="39.544548" lon="-0.506967"><ele>94.35</ele><time>2012-01-28T10:00:12Z</time></trkpt><trkpt lat="39.544315" lon="-0.506786"><ele>94.83</ele><time>2012-01-28T10:00:19Z</time></trkpt><trkpt lat="39.544136" lon="-0.506683"><ele>94.35</ele><time>2012-01-28T10:00:23Z</time></trkpt><trkpt lat="39.543922" lon="-0.506431"><ele>92.42</ele><time>2012-01-28T10:00:30Z</time></trkpt><trkpt lat="39.543789" lon="-0.506141"><ele>93.39</ele><time>2012-01-28T10:00:37Z</time></trkpt><trkpt lat="39.543701" lon="-0.505932"><ele>93.39</ele><time>2012-01-28T10:00:41Z</time></trkpt><trkpt lat="39.543613" lon="-0.505789"><ele>93.39</ele><time>2012-01-28T10:00:44Z</time></trkpt><trkpt lat="39.543476" lon="-0.505611"><ele>93.87</ele><time>2012-01-28T10:00:48Z</time></trkpt><trkpt lat="39.543331" lon="-0.505379"><ele>94.83</ele><time>2012-01-28T10:00:52Z</time></trkpt><trkpt lat="39.543148" lon="-0.504993"><ele>97.23</ele><time>2012-01-28T10:01:02Z</time></trkpt><trkpt lat="39.543095" lon="-0.504869"><ele>97.71</ele><time>2012-01-28T10:01:07Z</time></trkpt><trkpt lat="39.543121" lon="-0.504774"><ele>97.71</ele><time>2012-01-28T10:01:11Z</time></trkpt><trkpt lat="39.543106" lon="-0.504479"><ele>97.71</ele><time>2012-01-28T10:01:21Z</time></trkpt><trkpt lat="39.543022" lon="-0.504398"><ele>97.71</ele><time>2012-01-28T10:01:24Z</time></trkpt><trkpt lat="39.542873" lon="-0.503999"><ele>98.67</ele><time>2012-01-28T10:01:35Z</time></trkpt><trkpt lat="39.542786" lon="-0.503725"><ele>98.67</ele><time>2012-01-28T10:01:45Z</time></trkpt><trkpt lat="39.542629" lon="-0.503407"><ele>99.63</ele><time>2012-01-28T10:01:58Z</time></trkpt><trkpt lat="39.542469" lon="-0.503187"><ele>99.63</ele><time>2012-01-28T10:02:10Z</time></trkpt><trkpt lat="39.542278" lon="-0.502996"><ele>100.60</ele><time>2012-01-28T10:02:23Z</time></trkpt><trkpt lat="39.542164" lon="-0.502944"><ele>100.60</ele><time>2012-01-28T10:02:27Z</time></trkpt><trkpt lat="39.542068" lon="-0.502915"><ele>100.60</ele><time>2012-01-28T10:02:31Z</time></trkpt><trkpt lat="39.541843" lon="-0.502673"><ele>99.15</ele><time>2012-01-28T10:02:41Z</time></trkpt><trkpt lat="39.541748" lon="-0.502358"><ele>99.63</ele><time>2012-01-28T10:02:49Z</time></trkpt><trkpt lat="39.541779" lon="-0.502112"><ele>99.15</ele><time>2012-01-28T10:02:58Z</time></trkpt><trkpt lat="39.541710" lon="-0.502001"><ele>98.67</ele><time>2012-01-28T10:03:05Z</time></trkpt><trkpt lat="39.541622" lon="-0.501942"><ele>98.19</ele><time>2012-01-28T10:03:11Z</time></trkpt><trkpt lat="39.541428" lon="-0.501805"><ele>98.19</ele><time>2012-01-28T10:03:24Z</time></trkpt><trkpt lat="39.541420" lon="-0.501798"><ele>98.19</ele><time>2012-01-28T10:03:25Z</time></trkpt><trkpt lat="39.541447" lon="-0.501743"><ele>97.71</ele><time>2012-01-28T10:03:29Z</time></trkpt><trkpt lat="39.541496" lon="-0.501695"><ele>97.71</ele><time>2012-01-28T10:03:32Z</time></trkpt><trkpt lat="39.541580" lon="-0.501544"><ele>97.71</ele><time>2012-01-28T10:03:39Z</time></trkpt><trkpt lat="39.541557" lon="-0.501477"><ele>97.23</ele><time>2012-01-28T10:03:44Z</time></trkpt><trkpt lat="39.541412" lon="-0.501509"><ele>97.23</ele><time>2012-01-28T10:03:48Z</time></trkpt><trkpt lat="39.541298" lon="-0.501568"><ele>97.23</ele><time>2012-01-28T10:03:51Z</time></trkpt><trkpt lat="39.540955" lon="-0.501484"><ele>97.71</ele><time>2012-01-28T10:04:01Z</time></trkpt><trkpt lat="39.540852" lon="-0.501506"><ele>98.19</ele><time>2012-01-28T10:04:05Z</time></trkpt><trkpt lat="39.540600" lon="-0.501401"><ele>99.15</ele><time>2012-01-28T10:04:15Z</time></trkpt><trkpt lat="39.540401" lon="-0.501156"><ele>100.60</ele><time>2012-01-28T10:04:25Z</time></trkpt><trkpt lat="39.540218" lon="-0.500939"><ele>103.48</ele><time>2012-01-28T10:04:35Z</time></trkpt><trkpt lat="39.540020" lon="-0.500775"><ele>103.96</ele><time>2012-01-28T10:04:44Z</time></trkpt><trkpt lat="39.539886" lon="-0.500517"><ele>104.92</ele><time>2012-01-28T10:04:54Z</time></trkpt><trkpt lat="39.539730" lon="-0.500290"><ele>105.40</ele><time>2012-01-28T10:05:03Z</time></trkpt><trkpt lat="39.539650" lon="-0.499979"><ele>105.40</ele><time>2012-01-28T10:05:12Z</time></trkpt><trkpt lat="39.539482" lon="-0.499740"><ele>105.40</ele><time>2012-01-28T10:05:19Z</time></trkpt><trkpt lat="39.539520" lon="-0.499586"><ele>105.88</ele><time>2012-01-28T10:05:23Z</time></trkpt><trkpt lat="39.539608" lon="-0.499394"><ele>106.36</ele><time>2012-01-28T10:05:28Z</time></trkpt><trkpt lat="39.539597" lon="-0.499293"><ele>106.36</ele><time>2012-01-28T10:05:31Z</time></trkpt><trkpt lat="39.539528" lon="-0.499047"><ele>105.88</ele><time>2012-01-28T10:05:40Z</time></trkpt><trkpt lat="39.539478" lon="-0.498992"><ele>105.88</ele><time>2012-01-28T10:05:43Z</time></trkpt><trkpt lat="39.539429" lon="-0.498942"><ele>105.40</ele><time>2012-01-28T10:05:45Z</time></trkpt><trkpt lat="39.539379" lon="-0.498842"><ele>105.40</ele><time>2012-01-28T10:05:48Z</time></trkpt><trkpt lat="39.539577" lon="-0.498442"><ele>107.32</ele><time>2012-01-28T10:05:59Z</time></trkpt><trkpt lat="39.539764" lon="-0.498488"><ele>107.81</ele><time>2012-01-28T10:06:05Z</time></trkpt><trkpt lat="39.539833" lon="-0.498533"><ele>107.32</ele><time>2012-01-28T10:06:07Z</time></trkpt><trkpt lat="39.540104" lon="-0.498688"><ele>108.29</ele><time>2012-01-28T10:06:15Z</time></trkpt><trkpt lat="39.540501" lon="-0.498540"><ele>107.81</ele><time>2012-01-28T10:06:25Z</time></trkpt><trkpt lat="39.540756" lon="-0.498376"><ele>108.29</ele><time>2012-01-28T10:06:32Z</time></trkpt><trkpt lat="39.541088" lon="-0.498274"><ele>108.29</ele><time>2012-01-28T10:06:41Z</time></trkpt><trkpt lat="39.541210" lon="-0.498162"><ele>108.77</ele><time>2012-01-28T10:06:49Z</time></trkpt><trkpt lat="39.541210" lon="-0.498162"><ele>108.77</ele><time>2012-01-28T10:07:10Z</time></trkpt><trkpt lat="39.541210" lon="-0.498162"><ele>108.29</ele><time>2012-01-28T10:07:37Z</time></trkpt><trkpt lat="39.541210" lon="-0.498162"><ele>108.29</ele><time>2012-01-28T10:08:03Z</time></trkpt><trkpt lat="39.541210" lon="-0.498161"><ele>108.29</ele><time>2012-01-28T10:08:20Z</time></trkpt><trkpt lat="39.541294" lon="-0.498123"><ele>108.29</ele><time>2012-01-28T10:08:26Z</time></trkpt><trkpt lat="39.541431" lon="-0.497716"><ele>108.29</ele><time>2012-01-28T10:08:38Z</time></trkpt><trkpt lat="39.541451" lon="-0.497629"><ele>107.81</ele><time>2012-01-28T10:08:40Z</time></trkpt><trkpt lat="39.541428" lon="-0.497398"><ele>108.29</ele><time>2012-01-28T10:08:46Z</time></trkpt><trkpt lat="39.541443" lon="-0.497151"><ele>108.77</ele><time>2012-01-28T10:08:53Z</time></trkpt><trkpt lat="39.541332" lon="-0.496802"><ele>111.65</ele><time>2012-01-28T10:09:04Z</time></trkpt><trkpt lat="39.541367" lon="-0.496481"><ele>113.09</ele><time>2012-01-28T10:09:14Z</time></trkpt><trkpt lat="39.541370" lon="-0.496447"><ele>113.09</ele><time>2012-01-28T10:09:15Z</time></trkpt><trkpt lat="39.541382" lon="-0.496309"><ele>113.09</ele><time>2012-01-28T10:09:19Z</time></trkpt><trkpt lat="39.541298" lon="-0.495887"><ele>113.09</ele><time>2012-01-28T10:09:32Z</time></trkpt><trkpt lat="39.541428" lon="-0.495743"><ele>112.61</ele><time>2012-01-28T10:09:42Z</time></trkpt><trkpt lat="39.541439" lon="-0.495617"><ele>112.61</ele><time>2012-01-28T10:09:47Z</time></trkpt><trkpt lat="39.541481" lon="-0.495459"><ele>113.09</ele><time>2012-01-28T10:09:59Z</time></trkpt><trkpt lat="39.541481" lon="-0.495385"><ele>113.57</ele><time>2012-01-28T10:10:09Z</time></trkpt><trkpt lat="39.541676" lon="-0.495252"><ele>113.09</ele><time>2012-01-28T10:10:20Z</time></trkpt><trkpt lat="39.541801" lon="-0.495202"><ele>112.13</ele><time>2012-01-28T10:10:24Z</time></trkpt><trkpt lat="39.541927" lon="-0.494836"><ele>110.21</ele><time>2012-01-28T10:10:32Z</time></trkpt><trkpt lat="39.541954" lon="-0.494798"><ele>109.73</ele><time>2012-01-28T10:10:33Z</time></trkpt><trkpt lat="39.542023" lon="-0.494723"><ele>109.73</ele><time>2012-01-28T10:10:36Z</time></trkpt><trkpt lat="39.542110" lon="-0.494533"><ele>109.73</ele><time>2012-01-28T10:10:40Z</time></trkpt><trkpt lat="39.542156" lon="-0.493964"><ele>109.73</ele><time>2012-01-28T10:10:49Z</time></trkpt><trkpt lat="39.542156" lon="-0.493911"><ele>109.73</ele><time>2012-01-28T10:10:50Z</time></trkpt><trkpt lat="39.542168" lon="-0.493340"><ele>111.17</ele><time>2012-01-28T10:11:02Z</time></trkpt><trkpt lat="39.542171" lon="-0.492898"><ele>111.17</ele><time>2012-01-28T10:11:13Z</time></trkpt><trkpt lat="39.542175" lon="-0.492711"><ele>111.17</ele><time>2012-01-28T10:11:17Z</time></trkpt><trkpt lat="39.542202" lon="-0.492308"><ele>113.09</ele><time>2012-01-28T10:11:23Z</time></trkpt><trkpt lat="39.542194" lon="-0.491934"><ele>115.01</ele><time>2012-01-28T10:11:32Z</time></trkpt><trkpt lat="39.542149" lon="-0.491723"><ele>114.53</ele><time>2012-01-28T10:11:43Z</time></trkpt><trkpt lat="39.542149" lon="-0.491723"><ele>114.53</ele><time>2012-01-28T10:12:05Z</time></trkpt><trkpt lat="39.542149" lon="-0.491723"><ele>114.53</ele><time>2012-01-28T10:12:08Z</time></trkpt><trkpt lat="39.541897" lon="-0.491504"><ele>111.65</ele><time>2012-01-28T10:12:19Z</time></trkpt><trkpt lat="39.541840" lon="-0.491458"><ele>111.65</ele><time>2012-01-28T10:12:21Z</time></trkpt><trkpt lat="39.541771" lon="-0.491397"><ele>111.65</ele><time>2012-01-28T10:12:23Z</time></trkpt><trkpt lat="39.541615" lon="-0.491231"><ele>111.65</ele><time>2012-01-28T10:12:28Z</time></trkpt><trkpt lat="39.541401" lon="-0.491056"><ele>111.17</ele><time>2012-01-28T10:12:35Z</time></trkpt><trkpt lat="39.541111" lon="-0.490791"><ele>110.69</ele><time>2012-01-28T10:12:44Z</time></trkpt><trkpt lat="39.541039" lon="-0.490716"><ele>110.69</ele><time>2012-01-28T10:12:46Z</time></trkpt><trkpt lat="39.540703" lon="-0.490405"><ele>109.73</ele><time>2012-01-28T10:12:55Z</time></trkpt><trkpt lat="39.540535" lon="-0.490257"><ele>109.73</ele><time>2012-01-28T10:13:00Z</time></trkpt><trkpt lat="39.540234" lon="-0.490055"><ele>109.25</ele><time>2012-01-28T10:13:08Z</time></trkpt><trkpt lat="39.540062" lon="-0.489974"><ele>108.77</ele><time>2012-01-28T10:13:12Z</time></trkpt><trkpt lat="39.539440" lon="-0.489674"><ele>106.84</ele><time>2012-01-28T10:13:24Z</time></trkpt><trkpt lat="39.539330" lon="-0.489598"><ele>106.36</ele><time>2012-01-28T10:13:26Z</time></trkpt><trkpt lat="39.539085" lon="-0.489503"><ele>105.40</ele><time>2012-01-28T10:13:30Z</time></trkpt><trkpt lat="39.538589" lon="-0.488989"><ele>104.44</ele><time>2012-01-28T10:13:41Z</time></trkpt><trkpt lat="39.538475" lon="-0.489062"><ele>103.96</ele><time>2012-01-28T10:13:45Z</time></trkpt><trkpt lat="39.538349" lon="-0.489683"><ele>102.52</ele><time>2012-01-28T10:13:54Z</time></trkpt><trkpt lat="39.538151" lon="-0.489751"><ele>101.56</ele><time>2012-01-28T10:14:00Z</time></trkpt><trkpt lat="39.537815" lon="-0.489624"><ele>101.56</ele><time>2012-01-28T10:14:07Z</time></trkpt><trkpt lat="39.537632" lon="-0.489566"><ele>101.56</ele><time>2012-01-28T10:14:10Z</time></trkpt><trkpt lat="39.537403" lon="-0.489514"><ele>101.08</ele><time>2012-01-28T10:14:13Z</time></trkpt><trkpt lat="39.536888" lon="-0.489449"><ele>100.60</ele><time>2012-01-28T10:14:19Z</time></trkpt><trkpt lat="39.536472" lon="-0.489522"><ele>100.11</ele><time>2012-01-28T10:14:27Z</time></trkpt><trkpt lat="39.536449" lon="-0.489672"><ele>99.63</ele><time>2012-01-28T10:14:29Z</time></trkpt><trkpt lat="39.536423" lon="-0.489907"><ele>100.11</ele><time>2012-01-28T10:14:32Z</time></trkpt><trkpt lat="39.536240" lon="-0.490321"><ele>99.15</ele><time>2012-01-28T10:14:40Z</time></trkpt><trkpt lat="39.536018" lon="-0.490332"><ele>98.67</ele><time>2012-01-28T10:14:45Z</time></trkpt><trkpt lat="39.535515" lon="-0.490388"><ele>97.23</ele><time>2012-01-28T10:14:57Z</time></trkpt><trkpt lat="39.534904" lon="-0.490463"><ele>97.71</ele><time>2012-01-28T10:15:09Z</time></trkpt><trkpt lat="39.534752" lon="-0.490498"><ele>98.19</ele><time>2012-01-28T10:15:12Z</time></trkpt><trkpt lat="39.534458" lon="-0.490703"><ele>98.19</ele><time>2012-01-28T10:15:20Z</time></trkpt><trkpt lat="39.534473" lon="-0.490757"><ele>98.19</ele><time>2012-01-28T10:15:21Z</time></trkpt><trkpt lat="39.534519" lon="-0.491604"><ele>100.60</ele><time>2012-01-28T10:15:36Z</time></trkpt><trkpt lat="39.534523" lon="-0.491656"><ele>100.60</ele><time>2012-01-28T10:15:37Z</time></trkpt><trkpt lat="39.534523" lon="-0.491876"><ele>101.08</ele><time>2012-01-28T10:15:41Z</time></trkpt><trkpt lat="39.534527" lon="-0.492167"><ele>101.56</ele><time>2012-01-28T10:15:46Z</time></trkpt><trkpt lat="39.534542" lon="-0.492444"><ele>102.04</ele><time>2012-01-28T10:15:51Z</time></trkpt><trkpt lat="39.534561" lon="-0.492793"><ele>103.00</ele><time>2012-01-28T10:15:58Z</time></trkpt><trkpt lat="39.534489" lon="-0.492842"><ele>103.48</ele><time>2012-01-28T10:16:03Z</time></trkpt><trkpt lat="39.534225" lon="-0.492758"><ele>102.04</ele><time>2012-01-28T10:16:12Z</time></trkpt><trkpt lat="39.533657" lon="-0.492251"><ele>100.11</ele><time>2012-01-28T10:16:26Z</time></trkpt><trkpt lat="39.533611" lon="-0.492214"><ele>100.11</ele><time>2012-01-28T10:16:27Z</time></trkpt><trkpt lat="39.533314" lon="-0.491961"><ele>99.15</ele><time>2012-01-28T10:16:34Z</time></trkpt><trkpt lat="39.533070" lon="-0.491789"><ele>98.19</ele><time>2012-01-28T10:16:39Z</time></trkpt><trkpt lat="39.532436" lon="-0.491322"><ele>97.23</ele><time>2012-01-28T10:16:52Z</time></trkpt><trkpt lat="39.531731" lon="-0.490797"><ele>97.23</ele><time>2012-01-28T10:17:06Z</time></trkpt><trkpt lat="39.531063" lon="-0.490275"><ele>98.67</ele><time>2012-01-28T10:17:21Z</time></trkpt><trkpt lat="39.530842" lon="-0.490107"><ele>99.63</ele><time>2012-01-28T10:17:26Z</time></trkpt><trkpt lat="39.530697" lon="-0.490021"><ele>100.11</ele><time>2012-01-28T10:17:29Z</time></trkpt><trkpt lat="39.529980" lon="-0.489475"><ele>101.56</ele><time>2012-01-28T10:17:45Z</time></trkpt><trkpt lat="39.529369" lon="-0.489012"><ele>103.00</ele><time>2012-01-28T10:18:00Z</time></trkpt><trkpt lat="39.529217" lon="-0.488894"><ele>103.00</ele><time>2012-01-28T10:18:05Z</time></trkpt><trkpt lat="39.529076" lon="-0.489001"><ele>103.48</ele><time>2012-01-28T10:18:15Z</time></trkpt><trkpt lat="39.528957" lon="-0.489133"><ele>103.00</ele><time>2012-01-28T10:18:25Z</time></trkpt><trkpt lat="39.528843" lon="-0.489273"><ele>104.44</ele><time>2012-01-28T10:18:36Z</time></trkpt><trkpt lat="39.528629" lon="-0.489544"><ele>105.88</ele><time>2012-01-28T10:18:46Z</time></trkpt><trkpt lat="39.528320" lon="-0.489939"><ele>105.88</ele><time>2012-01-28T10:18:57Z</time></trkpt><trkpt lat="39.527943" lon="-0.490441"><ele>103.48</ele><time>2012-01-28T10:19:09Z</time></trkpt><trkpt lat="39.527847" lon="-0.490562"><ele>103.00</ele><time>2012-01-28T10:19:12Z</time></trkpt><trkpt lat="39.527435" lon="-0.491106"><ele>103.48</ele><time>2012-01-28T10:19:23Z</time></trkpt><trkpt lat="39.527000" lon="-0.491704"><ele>101.56</ele><time>2012-01-28T10:19:34Z</time></trkpt><trkpt lat="39.526566" lon="-0.492294"><ele>102.04</ele><time>2012-01-28T10:19:45Z</time></trkpt><trkpt lat="39.526375" lon="-0.492564"><ele>101.56</ele><time>2012-01-28T10:19:55Z</time></trkpt><trkpt lat="39.526417" lon="-0.492729"><ele>101.08</ele><time>2012-01-28T10:19:59Z</time></trkpt><trkpt lat="39.526455" lon="-0.492840"><ele>100.60</ele><time>2012-01-28T10:20:01Z</time></trkpt><trkpt lat="39.526493" lon="-0.493083"><ele>99.63</ele><time>2012-01-28T10:20:05Z</time></trkpt><trkpt lat="39.526558" lon="-0.493671"><ele>98.67</ele><time>2012-01-28T10:20:15Z</time></trkpt><trkpt lat="39.526638" lon="-0.493929"><ele>99.15</ele><time>2012-01-28T10:20:20Z</time></trkpt><trkpt lat="39.526749" lon="-0.494319"><ele>99.15</ele><time>2012-01-28T10:20:29Z</time></trkpt><trkpt lat="39.526871" lon="-0.494388"><ele>100.11</ele><time>2012-01-28T10:20:40Z</time></trkpt><trkpt lat="39.526871" lon="-0.494387"><ele>100.11</ele><time>2012-01-28T10:20:46Z</time></trkpt><trkpt lat="39.526981" lon="-0.494476"><ele>98.19</ele><time>2012-01-28T10:20:52Z</time></trkpt><trkpt lat="39.526966" lon="-0.494603"><ele>97.71</ele><time>2012-01-28T10:20:58Z</time></trkpt><trkpt lat="39.526913" lon="-0.494696"><ele>97.23</ele><time>2012-01-28T10:21:03Z</time></trkpt><trkpt lat="39.526897" lon="-0.494718"><ele>97.23</ele><time>2012-01-28T10:21:20Z</time></trkpt><trkpt lat="39.526897" lon="-0.494722"><ele>96.75</ele><time>2012-01-28T10:21:56Z</time></trkpt><trkpt lat="39.526901" lon="-0.494724"><ele>96.27</ele><time>2012-01-28T10:22:30Z</time></trkpt><trkpt lat="39.526901" lon="-0.494724"><ele>96.27</ele><time>2012-01-28T10:22:58Z</time></trkpt><trkpt lat="39.526901" lon="-0.494723"><ele>96.27</ele><time>2012-01-28T10:23:25Z</time></trkpt><trkpt lat="39.526901" lon="-0.494718"><ele>96.27</ele><time>2012-01-28T10:23:47Z</time></trkpt><trkpt lat="39.526791" lon="-0.494576"><ele>96.75</ele><time>2012-01-28T10:24:01Z</time></trkpt><trkpt lat="39.526752" lon="-0.494474"><ele>98.67</ele><time>2012-01-28T10:24:12Z</time></trkpt><trkpt lat="39.526764" lon="-0.494436"><ele>99.15</ele><time>2012-01-28T10:24:16Z</time></trkpt><trkpt lat="39.526775" lon="-0.494401"><ele>99.63</ele><time>2012-01-28T10:24:22Z</time></trkpt><trkpt lat="39.526730" lon="-0.494247"><ele>98.67</ele><time>2012-01-28T10:24:27Z</time></trkpt><trkpt lat="39.526718" lon="-0.494179"><ele>98.19</ele><time>2012-01-28T10:24:29Z</time></trkpt><trkpt lat="39.526543" lon="-0.493870"><ele>96.75</ele><time>2012-01-28T10:24:38Z</time></trkpt><trkpt lat="39.526516" lon="-0.493552"><ele>96.75</ele><time>2012-01-28T10:24:44Z</time></trkpt><trkpt lat="39.526505" lon="-0.493373"><ele>96.75</ele><time>2012-01-28T10:24:47Z</time></trkpt><trkpt lat="39.526478" lon="-0.493232"><ele>96.75</ele><time>2012-01-28T10:24:49Z</time></trkpt><trkpt lat="39.526451" lon="-0.493034"><ele>96.27</ele><time>2012-01-28T10:24:52Z</time></trkpt><trkpt lat="39.526379" lon="-0.492754"><ele>96.75</ele><time>2012-01-28T10:24:58Z</time></trkpt><trkpt lat="39.526237" lon="-0.492774"><ele>97.23</ele><time>2012-01-28T10:25:03Z</time></trkpt><trkpt lat="39.525990" lon="-0.493089"><ele>97.23</ele><time>2012-01-28T10:25:11Z</time></trkpt><trkpt lat="39.525734" lon="-0.493082"><ele>97.23</ele><time>2012-01-28T10:25:20Z</time></trkpt><trkpt lat="39.525829" lon="-0.493245"><ele>96.75</ele><time>2012-01-28T10:25:26Z</time></trkpt><trkpt lat="39.525909" lon="-0.494051"><ele>93.39</ele><time>2012-01-28T10:25:37Z</time></trkpt><trkpt lat="39.526009" lon="-0.494976"><ele>88.58</ele><time>2012-01-28T10:25:49Z</time></trkpt><trkpt lat="39.526108" lon="-0.495802"><ele>84.25</ele><time>2012-01-28T10:26:01Z</time></trkpt><trkpt lat="39.526123" lon="-0.495963"><ele>82.81</ele><time>2012-01-28T10:26:03Z</time></trkpt><trkpt lat="39.526157" lon="-0.496138"><ele>81.37</ele><time>2012-01-28T10:26:06Z</time></trkpt><trkpt lat="39.526180" lon="-0.496320"><ele>80.89</ele><time>2012-01-28T10:26:09Z</time></trkpt><trkpt lat="39.526226" lon="-0.496802"><ele>83.77</ele><time>2012-01-28T10:26:18Z</time></trkpt><trkpt lat="39.526245" lon="-0.496939"><ele>84.73</ele><time>2012-01-28T10:26:23Z</time></trkpt><trkpt lat="39.526222" lon="-0.497130"><ele>86.18</ele><time>2012-01-28T10:26:33Z</time></trkpt><trkpt lat="39.526226" lon="-0.497150"><ele>86.66</ele><time>2012-01-28T10:26:44Z</time></trkpt><trkpt lat="39.526234" lon="-0.497173"><ele>86.66</ele><time>2012-01-28T10:26:52Z</time></trkpt><trkpt lat="39.526325" lon="-0.497503"><ele>89.54</ele><time>2012-01-28T10:27:05Z</time></trkpt><trkpt lat="39.526505" lon="-0.497493"><ele>90.02</ele><time>2012-01-28T10:27:15Z</time></trkpt><trkpt lat="39.526566" lon="-0.497483"><ele>90.50</ele><time>2012-01-28T10:27:18Z</time></trkpt><trkpt lat="39.526711" lon="-0.497462"><ele>91.46</ele><time>2012-01-28T10:27:28Z</time></trkpt><trkpt lat="39.526878" lon="-0.497441"><ele>91.94</ele><time>2012-01-28T10:27:40Z</time></trkpt><trkpt lat="39.527000" lon="-0.497419"><ele>90.98</ele><time>2012-01-28T10:27:46Z</time></trkpt><trkpt lat="39.527008" lon="-0.497553"><ele>90.50</ele><time>2012-01-28T10:27:53Z</time></trkpt><trkpt lat="39.526848" lon="-0.497829"><ele>90.50</ele><time>2012-01-28T10:28:03Z</time></trkpt><trkpt lat="39.526768" lon="-0.498208"><ele>90.98</ele><time>2012-01-28T10:28:14Z</time></trkpt><trkpt lat="39.526623" lon="-0.498629"><ele>90.02</ele><time>2012-01-28T10:28:25Z</time></trkpt><trkpt lat="39.526554" lon="-0.499080"><ele>90.98</ele><time>2012-01-28T10:28:36Z</time></trkpt><trkpt lat="39.526501" lon="-0.499472"><ele>93.39</ele><time>2012-01-28T10:28:46Z</time></trkpt><trkpt lat="39.526531" lon="-0.499830"><ele>93.87</ele><time>2012-01-28T10:28:55Z</time></trkpt><trkpt lat="39.526463" lon="-0.500045"><ele>94.35</ele><time>2012-01-28T10:29:01Z</time></trkpt><trkpt lat="39.526497" lon="-0.500250"><ele>95.79</ele><time>2012-01-28T10:29:08Z</time></trkpt><trkpt lat="39.526543" lon="-0.500310"><ele>96.75</ele><time>2012-01-28T10:29:12Z</time></trkpt><trkpt lat="39.526581" lon="-0.500398"><ele>96.75</ele><time>2012-01-28T10:29:16Z</time></trkpt><trkpt lat="39.526657" lon="-0.500566"><ele>97.71</ele><time>2012-01-28T10:29:26Z</time></trkpt><trkpt lat="39.526714" lon="-0.500832"><ele>98.67</ele><time>2012-01-28T10:29:36Z</time></trkpt><trkpt lat="39.526718" lon="-0.500916"><ele>99.63</ele><time>2012-01-28T10:29:40Z</time></trkpt><trkpt lat="39.526691" lon="-0.500952"><ele>99.15</ele><time>2012-01-28T10:29:44Z</time></trkpt><trkpt lat="39.526611" lon="-0.501074"><ele>99.15</ele><time>2012-01-28T10:29:57Z</time></trkpt><trkpt lat="39.526611" lon="-0.501074"><ele>99.15</ele><time>2012-01-28T10:30:00Z</time></trkpt><trkpt lat="39.526550" lon="-0.501202"><ele>99.63</ele><time>2012-01-28T10:30:05Z</time></trkpt><trkpt lat="39.526512" lon="-0.501370"><ele>100.11</ele><time>2012-01-28T10:30:08Z</time></trkpt><trkpt lat="39.526512" lon="-0.501485"><ele>100.11</ele><time>2012-01-28T10:30:10Z</time></trkpt><trkpt lat="39.526505" lon="-0.501723"><ele>100.60</ele><time>2012-01-28T10:30:15Z</time></trkpt><trkpt lat="39.526470" lon="-0.502457"><ele>101.56</ele><time>2012-01-28T10:30:33Z</time></trkpt><trkpt lat="39.526474" lon="-0.502551"><ele>101.56</ele><time>2012-01-28T10:30:36Z</time></trkpt><trkpt lat="39.526443" lon="-0.502610"><ele>101.56</ele><time>2012-01-28T10:30:41Z</time></trkpt><trkpt lat="39.526375" lon="-0.502636"><ele>100.60</ele><time>2012-01-28T10:30:45Z</time></trkpt><trkpt lat="39.526321" lon="-0.502676"><ele>100.60</ele><time>2012-01-28T10:30:49Z</time></trkpt><trkpt lat="39.526237" lon="-0.502754"><ele>100.60</ele><time>2012-01-28T10:30:55Z</time></trkpt><trkpt lat="39.526173" lon="-0.502827"><ele>99.63</ele><time>2012-01-28T10:31:05Z</time></trkpt><trkpt lat="39.526154" lon="-0.502830"><ele>99.15</ele><time>2012-01-28T10:31:09Z</time></trkpt><trkpt lat="39.526112" lon="-0.502816"><ele>98.19</ele><time>2012-01-28T10:31:23Z</time></trkpt><trkpt lat="39.526131" lon="-0.502819"><ele>99.63</ele><time>2012-01-28T10:31:33Z</time></trkpt><trkpt lat="39.526161" lon="-0.502814"><ele>100.11</ele><time>2012-01-28T10:31:37Z</time></trkpt><trkpt lat="39.526257" lon="-0.502723"><ele>101.56</ele><time>2012-01-28T10:31:50Z</time></trkpt><trkpt lat="39.526291" lon="-0.502705"><ele>101.56</ele><time>2012-01-28T10:31:56Z</time></trkpt><trkpt lat="39.526340" lon="-0.502662"><ele>101.56</ele><time>2012-01-28T10:32:00Z</time></trkpt><trkpt lat="39.526428" lon="-0.502614"><ele>101.56</ele><time>2012-01-28T10:32:07Z</time></trkpt><trkpt lat="39.526524" lon="-0.502823"><ele>102.52</ele><time>2012-01-28T10:32:15Z</time></trkpt><trkpt lat="39.526630" lon="-0.503083"><ele>102.52</ele><time>2012-01-28T10:32:28Z</time></trkpt><trkpt lat="39.526756" lon="-0.503451"><ele>102.04</ele><time>2012-01-28T10:32:38Z</time></trkpt><trkpt lat="39.526814" lon="-0.503948"><ele>103.00</ele><time>2012-01-28T10:32:51Z</time></trkpt><trkpt lat="39.526806" lon="-0.504027"><ele>103.48</ele><time>2012-01-28T10:32:56Z</time></trkpt><trkpt lat="39.526943" lon="-0.504036"><ele>103.48</ele><time>2012-01-28T10:33:03Z</time></trkpt><trkpt lat="39.527237" lon="-0.504187"><ele>104.92</ele><time>2012-01-28T10:33:16Z</time></trkpt><trkpt lat="39.527439" lon="-0.504253"><ele>105.40</ele><time>2012-01-28T10:33:26Z</time></trkpt><trkpt lat="39.527458" lon="-0.504260"><ele>105.40</ele><time>2012-01-28T10:33:27Z</time></trkpt><trkpt lat="39.527496" lon="-0.504252"><ele>105.40</ele><time>2012-01-28T10:33:29Z</time></trkpt><trkpt lat="39.527569" lon="-0.504154"><ele>106.36</ele><time>2012-01-28T10:33:34Z</time></trkpt><trkpt lat="39.527657" lon="-0.503855"><ele>107.81</ele><time>2012-01-28T10:33:46Z</time></trkpt><trkpt lat="39.527660" lon="-0.503643"><ele>109.25</ele><time>2012-01-28T10:33:55Z</time></trkpt><trkpt lat="39.527649" lon="-0.503560"><ele>109.73</ele><time>2012-01-28T10:34:08Z</time></trkpt><trkpt lat="39.527641" lon="-0.503499"><ele>109.73</ele><time>2012-01-28T10:34:10Z</time></trkpt><trkpt lat="39.527672" lon="-0.502882"><ele>110.69</ele><time>2012-01-28T10:34:24Z</time></trkpt><trkpt lat="39.527683" lon="-0.502487"><ele>111.65</ele><time>2012-01-28T10:34:34Z</time></trkpt><trkpt lat="39.527950" lon="-0.502408"><ele>111.65</ele><time>2012-01-28T10:34:43Z</time></trkpt><trkpt lat="39.527981" lon="-0.502415"><ele>111.17</ele><time>2012-01-28T10:34:44Z</time></trkpt><trkpt lat="39.528114" lon="-0.502352"><ele>110.21</ele><time>2012-01-28T10:34:48Z</time></trkpt><trkpt lat="39.528183" lon="-0.502176"><ele>110.21</ele><time>2012-01-28T10:34:53Z</time></trkpt><trkpt lat="39.528214" lon="-0.502065"><ele>109.73</ele><time>2012-01-28T10:34:56Z</time></trkpt><trkpt lat="39.528397" lon="-0.501796"><ele>108.29</ele><time>2012-01-28T10:35:04Z</time></trkpt><trkpt lat="39.528488" lon="-0.501543"><ele>108.29</ele><time>2012-01-28T10:35:10Z</time></trkpt><trkpt lat="39.528549" lon="-0.501292"><ele>107.81</ele><time>2012-01-28T10:35:15Z</time></trkpt><trkpt lat="39.528645" lon="-0.500914"><ele>106.36</ele><time>2012-01-28T10:35:24Z</time></trkpt><trkpt lat="39.528664" lon="-0.500929"><ele>106.84</ele><time>2012-01-28T10:35:36Z</time></trkpt><trkpt lat="39.528702" lon="-0.500949"><ele>106.84</ele><time>2012-01-28T10:35:41Z</time></trkpt><trkpt lat="39.528790" lon="-0.500875"><ele>107.32</ele><time>2012-01-28T10:35:46Z</time></trkpt><trkpt lat="39.528839" lon="-0.500884"><ele>107.81</ele><time>2012-01-28T10:35:48Z</time></trkpt><trkpt lat="39.528915" lon="-0.500798"><ele>107.32</ele><time>2012-01-28T10:35:53Z</time></trkpt><trkpt lat="39.528927" lon="-0.500755"><ele>107.32</ele><time>2012-01-28T10:36:03Z</time></trkpt><trkpt lat="39.528927" lon="-0.500756"><ele>107.32</ele><time>2012-01-28T10:36:25Z</time></trkpt><trkpt lat="39.528927" lon="-0.500756"><ele>107.32</ele><time>2012-01-28T10:36:55Z</time></trkpt><trkpt lat="39.528923" lon="-0.500754"><ele>107.32</ele><time>2012-01-28T10:37:29Z</time></trkpt><trkpt lat="39.528923" lon="-0.500753"><ele>107.32</ele><time>2012-01-28T10:38:04Z</time></trkpt><trkpt lat="39.528923" lon="-0.500753"><ele>107.32</ele><time>2012-01-28T10:38:32Z</time></trkpt><trkpt lat="39.528927" lon="-0.500753"><ele>106.84</ele><time>2012-01-28T10:39:14Z</time></trkpt><trkpt lat="39.528923" lon="-0.500753"><ele>106.84</ele><time>2012-01-28T10:39:47Z</time></trkpt><trkpt lat="39.528927" lon="-0.500757"><ele>106.84</ele><time>2012-01-28T10:40:02Z</time></trkpt><trkpt lat="39.528931" lon="-0.500764"><ele>106.36</ele><time>2012-01-28T10:40:19Z</time></trkpt><trkpt lat="39.528931" lon="-0.500764"><ele>106.36</ele><time>2012-01-28T10:40:22Z</time></trkpt><trkpt lat="39.528919" lon="-0.500822"><ele>106.36</ele><time>2012-01-28T10:40:26Z</time></trkpt><trkpt lat="39.528717" lon="-0.500944"><ele>106.36</ele><time>2012-01-28T10:40:38Z</time></trkpt><trkpt lat="39.528694" lon="-0.500946"><ele>106.36</ele><time>2012-01-28T10:40:39Z</time></trkpt><trkpt lat="39.528641" lon="-0.501143"><ele>106.84</ele><time>2012-01-28T10:40:47Z</time></trkpt><trkpt lat="39.528553" lon="-0.501311"><ele>107.32</ele><time>2012-01-28T10:40:57Z</time></trkpt><trkpt lat="39.528458" lon="-0.501659"><ele>107.32</ele><time>2012-01-28T10:41:07Z</time></trkpt><trkpt lat="39.528427" lon="-0.501753"><ele>107.81</ele><time>2012-01-28T10:41:09Z</time></trkpt><trkpt lat="39.528183" lon="-0.502218"><ele>109.25</ele><time>2012-01-28T10:41:21Z</time></trkpt><trkpt lat="39.528160" lon="-0.502306"><ele>109.25</ele><time>2012-01-28T10:41:23Z</time></trkpt><trkpt lat="39.527840" lon="-0.502427"><ele>110.21</ele><time>2012-01-28T10:41:33Z</time></trkpt><trkpt lat="39.527645" lon="-0.502633"><ele>109.73</ele><time>2012-01-28T10:41:41Z</time></trkpt><trkpt lat="39.527664" lon="-0.502782"><ele>109.25</ele><time>2012-01-28T10:41:44Z</time></trkpt><trkpt lat="39.527649" lon="-0.503436"><ele>108.29</ele><time>2012-01-28T10:41:53Z</time></trkpt><trkpt lat="39.527641" lon="-0.503904"><ele>106.84</ele><time>2012-01-28T10:42:00Z</time></trkpt><trkpt lat="39.527557" lon="-0.504194"><ele>105.40</ele><time>2012-01-28T10:42:05Z</time></trkpt><trkpt lat="39.527428" lon="-0.504306"><ele>103.96</ele><time>2012-01-28T10:42:15Z</time></trkpt><trkpt lat="39.527424" lon="-0.504306"><ele>103.96</ele><time>2012-01-28T10:42:39Z</time></trkpt><trkpt lat="39.527428" lon="-0.504307"><ele>103.96</ele><time>2012-01-28T10:42:55Z</time></trkpt><trkpt lat="39.527431" lon="-0.504398"><ele>102.52</ele><time>2012-01-28T10:42:58Z</time></trkpt><trkpt lat="39.527473" lon="-0.504456"><ele>101.56</ele><time>2012-01-28T10:43:00Z</time></trkpt><trkpt lat="39.527489" lon="-0.504790"><ele>97.23</ele><time>2012-01-28T10:43:07Z</time></trkpt><trkpt lat="39.527512" lon="-0.504973"><ele>95.79</ele><time>2012-01-28T10:43:10Z</time></trkpt><trkpt lat="39.527592" lon="-0.505113"><ele>94.83</ele><time>2012-01-28T10:43:13Z</time></trkpt><trkpt lat="39.527725" lon="-0.505443"><ele>90.50</ele><time>2012-01-28T10:43:20Z</time></trkpt><trkpt lat="39.527790" lon="-0.505810"><ele>88.58</ele><time>2012-01-28T10:43:26Z</time></trkpt><trkpt lat="39.527851" lon="-0.506108"><ele>87.62</ele><time>2012-01-28T10:43:31Z</time></trkpt><trkpt lat="39.527840" lon="-0.506249"><ele>87.14</ele><time>2012-01-28T10:43:33Z</time></trkpt><trkpt lat="39.527855" lon="-0.506733"><ele>90.98</ele><time>2012-01-28T10:43:43Z</time></trkpt><trkpt lat="39.527863" lon="-0.506741"><ele>91.46</ele><time>2012-01-28T10:43:45Z</time></trkpt><trkpt lat="39.527874" lon="-0.506736"><ele>91.46</ele><time>2012-01-28T10:43:56Z</time></trkpt><trkpt lat="39.527874" lon="-0.506736"><ele>91.46</ele><time>2012-01-28T10:44:21Z</time></trkpt><trkpt lat="39.527874" lon="-0.506735"><ele>91.46</ele><time>2012-01-28T10:44:33Z</time></trkpt><trkpt lat="39.527912" lon="-0.506794"><ele>93.39</ele><time>2012-01-28T10:44:37Z</time></trkpt><trkpt lat="39.527946" lon="-0.506870"><ele>94.83</ele><time>2012-01-28T10:44:53Z</time></trkpt><trkpt lat="39.527946" lon="-0.506870"><ele>94.83</ele><time>2012-01-28T10:45:07Z</time></trkpt><trkpt lat="39.527950" lon="-0.506874"><ele>94.83</ele><time>2012-01-28T10:45:35Z</time></trkpt><trkpt lat="39.527950" lon="-0.506874"><ele>94.83</ele><time>2012-01-28T10:45:59Z</time></trkpt><trkpt lat="39.527954" lon="-0.506874"><ele>94.83</ele><time>2012-01-28T10:46:10Z</time></trkpt><trkpt lat="39.528069" lon="-0.506938"><ele>94.83</ele><time>2012-01-28T10:46:16Z</time></trkpt><trkpt lat="39.528111" lon="-0.506928"><ele>94.83</ele><time>2012-01-28T10:46:19Z</time></trkpt><trkpt lat="39.528149" lon="-0.506999"><ele>94.83</ele><time>2012-01-28T10:46:23Z</time></trkpt><trkpt lat="39.528168" lon="-0.507367"><ele>91.46</ele><time>2012-01-28T10:46:34Z</time></trkpt><trkpt lat="39.528019" lon="-0.507618"><ele>85.21</ele><time>2012-01-28T10:46:42Z</time></trkpt><trkpt lat="39.527756" lon="-0.507928"><ele>80.41</ele><time>2012-01-28T10:46:50Z</time></trkpt><trkpt lat="39.527775" lon="-0.508161"><ele>77.04</ele><time>2012-01-28T10:46:56Z</time></trkpt><trkpt lat="39.527649" lon="-0.508295"><ele>75.12</ele><time>2012-01-28T10:47:01Z</time></trkpt><trkpt lat="39.527603" lon="-0.508401"><ele>74.64</ele><time>2012-01-28T10:47:05Z</time></trkpt><trkpt lat="39.527557" lon="-0.508390"><ele>74.64</ele><time>2012-01-28T10:47:16Z</time></trkpt><trkpt lat="39.527557" lon="-0.508389"><ele>74.64</ele><time>2012-01-28T10:47:50Z</time></trkpt><trkpt lat="39.527557" lon="-0.508389"><ele>74.64</ele><time>2012-01-28T10:48:22Z</time></trkpt><trkpt lat="39.527580" lon="-0.508389"><ele>74.16</ele><time>2012-01-28T10:48:33Z</time></trkpt><trkpt lat="39.527599" lon="-0.508399"><ele>73.68</ele><time>2012-01-28T10:48:48Z</time></trkpt><trkpt lat="39.527599" lon="-0.508399"><ele>73.68</ele><time>2012-01-28T10:49:08Z</time></trkpt><trkpt lat="39.527840" lon="-0.508682"><ele>74.64</ele><time>2012-01-28T10:49:20Z</time></trkpt><trkpt lat="39.527943" lon="-0.508711"><ele>74.64</ele><time>2012-01-28T10:49:23Z</time></trkpt><trkpt lat="39.528091" lon="-0.508664"><ele>73.68</ele><time>2012-01-28T10:49:27Z</time></trkpt><trkpt lat="39.528358" lon="-0.508641"><ele>72.24</ele><time>2012-01-28T10:49:37Z</time></trkpt><trkpt lat="39.528465" lon="-0.508758"><ele>74.64</ele><time>2012-01-28T10:49:48Z</time></trkpt><trkpt lat="39.528492" lon="-0.508785"><ele>75.12</ele><time>2012-01-28T10:50:01Z</time></trkpt><trkpt lat="39.528492" lon="-0.508784"><ele>75.12</ele><time>2012-01-28T10:50:15Z</time></trkpt><trkpt lat="39.528587" lon="-0.508892"><ele>74.16</ele><time>2012-01-28T10:50:30Z</time></trkpt><trkpt lat="39.528660" lon="-0.509023"><ele>75.12</ele><time>2012-01-28T10:50:34Z</time></trkpt><trkpt lat="39.528812" lon="-0.509117"><ele>76.56</ele><time>2012-01-28T10:50:39Z</time></trkpt><trkpt lat="39.528881" lon="-0.509163"><ele>77.52</ele><time>2012-01-28T10:50:42Z</time></trkpt><trkpt lat="39.529106" lon="-0.509171"><ele>77.52</ele><time>2012-01-28T10:50:50Z</time></trkpt><trkpt lat="39.529461" lon="-0.509135"><ele>78.97</ele><time>2012-01-28T10:51:04Z</time></trkpt><trkpt lat="39.529705" lon="-0.508880"><ele>77.52</ele><time>2012-01-28T10:51:16Z</time></trkpt><trkpt lat="39.529785" lon="-0.508794"><ele>78.00</ele><time>2012-01-28T10:51:21Z</time></trkpt><trkpt lat="39.529945" lon="-0.508558"><ele>79.93</ele><time>2012-01-28T10:51:32Z</time></trkpt><trkpt lat="39.529995" lon="-0.508303"><ele>80.89</ele><time>2012-01-28T10:51:42Z</time></trkpt><trkpt lat="39.530022" lon="-0.508237"><ele>80.89</ele><time>2012-01-28T10:51:44Z</time></trkpt><trkpt lat="39.530308" lon="-0.507854"><ele>80.41</ele><time>2012-01-28T10:51:55Z</time></trkpt><trkpt lat="39.530621" lon="-0.507554"><ele>80.89</ele><time>2012-01-28T10:52:08Z</time></trkpt><trkpt lat="39.530655" lon="-0.507541"><ele>81.37</ele><time>2012-01-28T10:52:16Z</time></trkpt><trkpt lat="39.530655" lon="-0.507542"><ele>81.37</ele><time>2012-01-28T10:52:18Z</time></trkpt><trkpt lat="39.530373" lon="-0.507806"><ele>81.37</ele><time>2012-01-28T10:52:33Z</time></trkpt><trkpt lat="39.530277" lon="-0.507897"><ele>80.89</ele><time>2012-01-28T10:52:36Z</time></trkpt><trkpt lat="39.530079" lon="-0.508137"><ele>81.37</ele><time>2012-01-28T10:52:42Z</time></trkpt><trkpt lat="39.529919" lon="-0.508630"><ele>81.37</ele><time>2012-01-28T10:52:53Z</time></trkpt><trkpt lat="39.529621" lon="-0.509017"><ele>79.45</ele><time>2012-01-28T10:53:01Z</time></trkpt><trkpt lat="39.529499" lon="-0.509126"><ele>79.45</ele><time>2012-01-28T10:53:04Z</time></trkpt><trkpt lat="39.528976" lon="-0.509178"><ele>77.04</ele><time>2012-01-28T10:53:13Z</time></trkpt><trkpt lat="39.528854" lon="-0.509247"><ele>76.56</ele><time>2012-01-28T10:53:15Z</time></trkpt><trkpt lat="39.528629" lon="-0.509461"><ele>75.12</ele><time>2012-01-28T10:53:19Z</time></trkpt><trkpt lat="39.528416" lon="-0.509723"><ele>74.64</ele><time>2012-01-28T10:53:24Z</time></trkpt><trkpt lat="39.528282" lon="-0.509945"><ele>75.60</ele><time>2012-01-28T10:53:29Z</time></trkpt><trkpt lat="39.528187" lon="-0.510066"><ele>75.60</ele><time>2012-01-28T10:53:32Z</time></trkpt><trkpt lat="39.528042" lon="-0.510159"><ele>75.12</ele><time>2012-01-28T10:53:36Z</time></trkpt><trkpt lat="39.527691" lon="-0.510459"><ele>73.20</ele><time>2012-01-28T10:53:45Z</time></trkpt><trkpt lat="39.527615" lon="-0.510529"><ele>72.72</ele><time>2012-01-28T10:53:47Z</time></trkpt><trkpt lat="39.527233" lon="-0.510910"><ele>70.79</ele><time>2012-01-28T10:53:57Z</time></trkpt><trkpt lat="39.527081" lon="-0.511055"><ele>70.79</ele><time>2012-01-28T10:54:01Z</time></trkpt><trkpt lat="39.527020" lon="-0.511003"><ele>70.31</ele><time>2012-01-28T10:54:10Z</time></trkpt><trkpt lat="39.527004" lon="-0.510986"><ele>69.83</ele><time>2012-01-28T10:54:11Z</time></trkpt><trkpt lat="39.526978" lon="-0.510926"><ele>69.35</ele><time>2012-01-28T10:54:22Z</time></trkpt><trkpt lat="39.526970" lon="-0.510926"><ele>69.35</ele><time>2012-01-28T10:54:36Z</time></trkpt><trkpt lat="39.526974" lon="-0.510922"><ele>69.35</ele><time>2012-01-28T10:54:55Z</time></trkpt><trkpt lat="39.526978" lon="-0.510901"><ele>68.39</ele><time>2012-01-28T10:55:05Z</time></trkpt><trkpt lat="39.526878" lon="-0.510883"><ele>65.99</ele><time>2012-01-28T10:55:10Z</time></trkpt><trkpt lat="39.526711" lon="-0.510738"><ele>62.14</ele><time>2012-01-28T10:55:17Z</time></trkpt><trkpt lat="39.526703" lon="-0.510728"><ele>62.14</ele><time>2012-01-28T10:55:29Z</time></trkpt><trkpt lat="39.526741" lon="-0.510751"><ele>63.10</ele><time>2012-01-28T10:55:45Z</time></trkpt><trkpt lat="39.526730" lon="-0.510748"><ele>63.10</ele><time>2012-01-28T10:56:14Z</time></trkpt><trkpt lat="39.526726" lon="-0.510742"><ele>63.10</ele><time>2012-01-28T10:56:15Z</time></trkpt><trkpt lat="39.526684" lon="-0.510635"><ele>63.10</ele><time>2012-01-28T10:56:30Z</time></trkpt><trkpt lat="39.526649" lon="-0.510553"><ele>64.55</ele><time>2012-01-28T10:56:43Z</time></trkpt><trkpt lat="39.526535" lon="-0.510387"><ele>67.91</ele><time>2012-01-28T10:56:59Z</time></trkpt><trkpt lat="39.526501" lon="-0.510339"><ele>69.35</ele><time>2012-01-28T10:57:04Z</time></trkpt><trkpt lat="39.526436" lon="-0.510262"><ele>70.31</ele><time>2012-01-28T10:57:17Z</time></trkpt><trkpt lat="39.526436" lon="-0.510262"><ele>70.31</ele><time>2012-01-28T10:57:18Z</time></trkpt><trkpt lat="39.526379" lon="-0.510290"><ele>69.35</ele><time>2012-01-28T10:57:30Z</time></trkpt><trkpt lat="39.526379" lon="-0.510290"><ele>69.35</ele><time>2012-01-28T10:58:04Z</time></trkpt><trkpt lat="39.526379" lon="-0.510285"><ele>69.35</ele><time>2012-01-28T10:58:54Z</time></trkpt><trkpt lat="39.526340" lon="-0.510331"><ele>69.83</ele><time>2012-01-28T10:59:06Z</time></trkpt><trkpt lat="39.526150" lon="-0.510207"><ele>69.35</ele><time>2012-01-28T10:59:15Z</time></trkpt><trkpt lat="39.525993" lon="-0.509857"><ele>70.79</ele><time>2012-01-28T10:59:26Z</time></trkpt><trkpt lat="39.526001" lon="-0.509725"><ele>70.79</ele><time>2012-01-28T10:59:29Z</time></trkpt><trkpt lat="39.526024" lon="-0.509616"><ele>70.79</ele><time>2012-01-28T10:59:31Z</time></trkpt><trkpt lat="39.526047" lon="-0.509394"><ele>70.79</ele><time>2012-01-28T10:59:35Z</time></trkpt><trkpt lat="39.526257" lon="-0.509055"><ele>69.35</ele><time>2012-01-28T10:59:43Z</time></trkpt><trkpt lat="39.526581" lon="-0.508973"><ele>70.79</ele><time>2012-01-28T10:59:56Z</time></trkpt><trkpt lat="39.526867" lon="-0.508945"><ele>73.20</ele><time>2012-01-28T11:00:07Z</time></trkpt><trkpt lat="39.527287" lon="-0.508929"><ele>74.64</ele><time>2012-01-28T11:00:20Z</time></trkpt><trkpt lat="39.527424" lon="-0.508915"><ele>74.64</ele><time>2012-01-28T11:00:25Z</time></trkpt><trkpt lat="39.527447" lon="-0.509043"><ele>74.64</ele><time>2012-01-28T11:00:32Z</time></trkpt><trkpt lat="39.527477" lon="-0.509169"><ele>74.16</ele><time>2012-01-28T11:00:36Z</time></trkpt><trkpt lat="39.527485" lon="-0.509242"><ele>73.20</ele><time>2012-01-28T11:00:41Z</time></trkpt><trkpt lat="39.527508" lon="-0.509396"><ele>71.76</ele><time>2012-01-28T11:00:48Z</time></trkpt><trkpt lat="39.527634" lon="-0.509541"><ele>69.35</ele><time>2012-01-28T11:00:56Z</time></trkpt><trkpt lat="39.527889" lon="-0.509374"><ele>68.87</ele><time>2012-01-28T11:01:09Z</time></trkpt><trkpt lat="39.527924" lon="-0.509320"><ele>69.35</ele><time>2012-01-28T11:01:17Z</time></trkpt><trkpt lat="39.527969" lon="-0.509291"><ele>68.87</ele><time>2012-01-28T11:01:22Z</time></trkpt><trkpt lat="39.527988" lon="-0.509275"><ele>69.35</ele><time>2012-01-28T11:01:32Z</time></trkpt><trkpt lat="39.528118" lon="-0.509035"><ele>70.31</ele><time>2012-01-28T11:01:48Z</time></trkpt><trkpt lat="39.528118" lon="-0.509016"><ele>70.31</ele><time>2012-01-28T11:01:49Z</time></trkpt><trkpt lat="39.528141" lon="-0.508914"><ele>70.31</ele><time>2012-01-28T11:01:55Z</time></trkpt><trkpt lat="39.528191" lon="-0.508858"><ele>71.27</ele><time>2012-01-28T11:02:01Z</time></trkpt><trkpt lat="39.528244" lon="-0.508820"><ele>71.76</ele><time>2012-01-28T11:02:06Z</time></trkpt><trkpt lat="39.528362" lon="-0.508674"><ele>72.72</ele><time>2012-01-28T11:02:21Z</time></trkpt><trkpt lat="39.528358" lon="-0.508680"><ele>72.72</ele><time>2012-01-28T11:02:38Z</time></trkpt><trkpt lat="39.528362" lon="-0.508678"><ele>72.72</ele><time>2012-01-28T11:02:59Z</time></trkpt><trkpt lat="39.528362" lon="-0.508677"><ele>72.72</ele><time>2012-01-28T11:03:22Z</time></trkpt><trkpt lat="39.528419" lon="-0.508547"><ele>73.20</ele><time>2012-01-28T11:03:29Z</time></trkpt><trkpt lat="39.528519" lon="-0.508474"><ele>73.20</ele><time>2012-01-28T11:03:33Z</time></trkpt><trkpt lat="39.528564" lon="-0.508443"><ele>72.72</ele><time>2012-01-28T11:03:35Z</time></trkpt><trkpt lat="39.528652" lon="-0.508481"><ele>71.76</ele><time>2012-01-28T11:03:40Z</time></trkpt><trkpt lat="39.528683" lon="-0.508530"><ele>72.24</ele><time>2012-01-28T11:03:42Z</time></trkpt><trkpt lat="39.528793" lon="-0.508790"><ele>72.72</ele><time>2012-01-28T11:03:51Z</time></trkpt><trkpt lat="39.528702" lon="-0.508982"><ele>72.72</ele><time>2012-01-28T11:03:58Z</time></trkpt><trkpt lat="39.528595" lon="-0.509317"><ele>73.20</ele><time>2012-01-28T11:04:10Z</time></trkpt><trkpt lat="39.528564" lon="-0.509398"><ele>73.20</ele><time>2012-01-28T11:04:13Z</time></trkpt><trkpt lat="39.528519" lon="-0.509517"><ele>73.20</ele><time>2012-01-28T11:04:22Z</time></trkpt><trkpt lat="39.528572" lon="-0.509384"><ele>73.20</ele><time>2012-01-28T11:04:26Z</time></trkpt><trkpt lat="39.528732" lon="-0.508944"><ele>71.76</ele><time>2012-01-28T11:04:37Z</time></trkpt><trkpt lat="39.528790" lon="-0.508804"><ele>71.27</ele><time>2012-01-28T11:04:40Z</time></trkpt><trkpt lat="39.528667" lon="-0.508492"><ele>71.27</ele><time>2012-01-28T11:04:48Z</time></trkpt><trkpt lat="39.528496" lon="-0.508485"><ele>70.79</ele><time>2012-01-28T11:04:53Z</time></trkpt><trkpt lat="39.528275" lon="-0.508628"><ele>71.27</ele><time>2012-01-28T11:05:02Z</time></trkpt><trkpt lat="39.528156" lon="-0.508670"><ele>72.24</ele><time>2012-01-28T11:05:07Z</time></trkpt><trkpt lat="39.527828" lon="-0.508695"><ele>72.72</ele><time>2012-01-28T11:05:18Z</time></trkpt><trkpt lat="39.527737" lon="-0.508588"><ele>72.72</ele><time>2012-01-28T11:05:22Z</time></trkpt><trkpt lat="39.527428" lon="-0.508206"><ele>72.72</ele><time>2012-01-28T11:05:34Z</time></trkpt><trkpt lat="39.527164" lon="-0.507742"><ele>74.16</ele><time>2012-01-28T11:05:47Z</time></trkpt><trkpt lat="39.526936" lon="-0.507284"><ele>74.64</ele><time>2012-01-28T11:05:59Z</time></trkpt><trkpt lat="39.526646" lon="-0.506855"><ele>77.52</ele><time>2012-01-28T11:06:13Z</time></trkpt><trkpt lat="39.526634" lon="-0.506829"><ele>78.00</ele><time>2012-01-28T11:06:14Z</time></trkpt><trkpt lat="39.526558" lon="-0.506803"><ele>78.97</ele><time>2012-01-28T11:06:18Z</time></trkpt><trkpt lat="39.526516" lon="-0.506827"><ele>79.93</ele><time>2012-01-28T11:06:20Z</time></trkpt><trkpt lat="39.526371" lon="-0.506798"><ele>80.89</ele><time>2012-01-28T11:06:26Z</time></trkpt><trkpt lat="39.526241" lon="-0.506741"><ele>81.85</ele><time>2012-01-28T11:06:38Z</time></trkpt><trkpt lat="39.526237" lon="-0.506740"><ele>81.85</ele><time>2012-01-28T11:06:58Z</time></trkpt><trkpt lat="39.526237" lon="-0.506740"><ele>81.85</ele><time>2012-01-28T11:07:06Z</time></trkpt><trkpt lat="39.526196" lon="-0.506758"><ele>81.37</ele><time>2012-01-28T11:07:09Z</time></trkpt><trkpt lat="39.525944" lon="-0.506626"><ele>78.00</ele><time>2012-01-28T11:07:17Z</time></trkpt><trkpt lat="39.525902" lon="-0.506618"><ele>77.52</ele><time>2012-01-28T11:07:18Z</time></trkpt><trkpt lat="39.525818" lon="-0.506618"><ele>77.04</ele><time>2012-01-28T11:07:20Z</time></trkpt><trkpt lat="39.525600" lon="-0.506605"><ele>76.08</ele><time>2012-01-28T11:07:27Z</time></trkpt><trkpt lat="39.525394" lon="-0.506574"><ele>74.64</ele><time>2012-01-28T11:07:34Z</time></trkpt><trkpt lat="39.525311" lon="-0.506287"><ele>69.83</ele><time>2012-01-28T11:07:42Z</time></trkpt><trkpt lat="39.525246" lon="-0.506140"><ele>68.87</ele><time>2012-01-28T11:07:46Z</time></trkpt><trkpt lat="39.525047" lon="-0.505735"><ele>67.43</ele><time>2012-01-28T11:07:55Z</time></trkpt><trkpt lat="39.524761" lon="-0.505705"><ele>65.03</ele><time>2012-01-28T11:08:02Z</time></trkpt><trkpt lat="39.524570" lon="-0.505747"><ele>65.51</ele><time>2012-01-28T11:08:08Z</time></trkpt><trkpt lat="39.524517" lon="-0.505769"><ele>65.51</ele><time>2012-01-28T11:08:10Z</time></trkpt><trkpt lat="39.524422" lon="-0.505944"><ele>64.07</ele><time>2012-01-28T11:08:21Z</time></trkpt><trkpt lat="39.524422" lon="-0.505955"><ele>64.07</ele><time>2012-01-28T11:08:43Z</time></trkpt><trkpt lat="39.524277" lon="-0.506201"><ele>64.55</ele><time>2012-01-28T11:08:53Z</time></trkpt><trkpt lat="39.524246" lon="-0.506224"><ele>64.07</ele><time>2012-01-28T11:08:54Z</time></trkpt><trkpt lat="39.523930" lon="-0.506109"><ele>63.10</ele><time>2012-01-28T11:09:04Z</time></trkpt><trkpt lat="39.523804" lon="-0.506046"><ele>63.10</ele><time>2012-01-28T11:09:10Z</time></trkpt><trkpt lat="39.523537" lon="-0.505956"><ele>65.03</ele><time>2012-01-28T11:09:18Z</time></trkpt><trkpt lat="39.523457" lon="-0.505882"><ele>65.03</ele><time>2012-01-28T11:09:20Z</time></trkpt><trkpt lat="39.523354" lon="-0.505666"><ele>65.51</ele><time>2012-01-28T11:09:24Z</time></trkpt><trkpt lat="39.523205" lon="-0.505301"><ele>65.51</ele><time>2012-01-28T11:09:31Z</time></trkpt><trkpt lat="39.523140" lon="-0.504949"><ele>66.95</ele><time>2012-01-28T11:09:39Z</time></trkpt><trkpt lat="39.523022" lon="-0.504806"><ele>68.87</ele><time>2012-01-28T11:09:46Z</time></trkpt><trkpt lat="39.522816" lon="-0.504564"><ele>70.31</ele><time>2012-01-28T11:09:57Z</time></trkpt><trkpt lat="39.522739" lon="-0.504469"><ele>71.27</ele><time>2012-01-28T11:10:02Z</time></trkpt><trkpt lat="39.522694" lon="-0.504435"><ele>71.27</ele><time>2012-01-28T11:10:06Z</time></trkpt><trkpt lat="39.522636" lon="-0.504417"><ele>71.76</ele><time>2012-01-28T11:10:19Z</time></trkpt><trkpt lat="39.522629" lon="-0.504403"><ele>71.76</ele><time>2012-01-28T11:10:30Z</time></trkpt><trkpt lat="39.522583" lon="-0.504382"><ele>72.24</ele><time>2012-01-28T11:10:44Z</time></trkpt><trkpt lat="39.522507" lon="-0.504325"><ele>75.12</ele><time>2012-01-28T11:10:59Z</time></trkpt><trkpt lat="39.522449" lon="-0.504341"><ele>77.52</ele><time>2012-01-28T11:11:14Z</time></trkpt><trkpt lat="39.522411" lon="-0.504334"><ele>78.97</ele><time>2012-01-28T11:11:20Z</time></trkpt><trkpt lat="39.522263" lon="-0.504454"><ele>83.77</ele><time>2012-01-28T11:11:36Z</time></trkpt><trkpt lat="39.522141" lon="-0.504468"><ele>84.25</ele><time>2012-01-28T11:11:50Z</time></trkpt><trkpt lat="39.522125" lon="-0.504474"><ele>83.77</ele><time>2012-01-28T11:12:02Z</time></trkpt><trkpt lat="39.522125" lon="-0.504474"><ele>83.77</ele><time>2012-01-28T11:12:20Z</time></trkpt><trkpt lat="39.522087" lon="-0.504456"><ele>83.29</ele><time>2012-01-28T11:12:23Z</time></trkpt><trkpt lat="39.521912" lon="-0.504349"><ele>80.89</ele><time>2012-01-28T11:12:30Z</time></trkpt><trkpt lat="39.521759" lon="-0.504143"><ele>77.04</ele><time>2012-01-28T11:12:37Z</time></trkpt><trkpt lat="39.521629" lon="-0.504025"><ele>75.60</ele><time>2012-01-28T11:12:42Z</time></trkpt><trkpt lat="39.521553" lon="-0.503920"><ele>74.16</ele><time>2012-01-28T11:12:47Z</time></trkpt><trkpt lat="39.521530" lon="-0.503748"><ele>74.64</ele><time>2012-01-28T11:12:53Z</time></trkpt><trkpt lat="39.521515" lon="-0.503668"><ele>75.12</ele><time>2012-01-28T11:12:56Z</time></trkpt><trkpt lat="39.521500" lon="-0.503635"><ele>75.60</ele><time>2012-01-28T11:12:58Z</time></trkpt><trkpt lat="39.521420" lon="-0.503604"><ele>76.08</ele><time>2012-01-28T11:13:03Z</time></trkpt><trkpt lat="39.521366" lon="-0.503618"><ele>76.56</ele><time>2012-01-28T11:13:15Z</time></trkpt><trkpt lat="39.521358" lon="-0.503619"><ele>76.56</ele><time>2012-01-28T11:13:33Z</time></trkpt><trkpt lat="39.521358" lon="-0.503619"><ele>76.56</ele><time>2012-01-28T11:13:56Z</time></trkpt><trkpt lat="39.521347" lon="-0.503620"><ele>76.08</ele><time>2012-01-28T11:14:16Z</time></trkpt><trkpt lat="39.521347" lon="-0.503620"><ele>76.08</ele><time>2012-01-28T11:14:36Z</time></trkpt><trkpt lat="39.521286" lon="-0.503570"><ele>75.12</ele><time>2012-01-28T11:14:40Z</time></trkpt><trkpt lat="39.520935" lon="-0.503406"><ele>73.68</ele><time>2012-01-28T11:14:51Z</time></trkpt><trkpt lat="39.520851" lon="-0.503369"><ele>73.20</ele><time>2012-01-28T11:14:54Z</time></trkpt><trkpt lat="39.520763" lon="-0.503416"><ele>73.20</ele><time>2012-01-28T11:15:01Z</time></trkpt><trkpt lat="39.520603" lon="-0.503330"><ele>71.76</ele><time>2012-01-28T11:15:12Z</time></trkpt><trkpt lat="39.520496" lon="-0.503253"><ele>70.31</ele><time>2012-01-28T11:15:17Z</time></trkpt><trkpt lat="39.520424" lon="-0.503133"><ele>68.87</ele><time>2012-01-28T11:15:21Z</time></trkpt><trkpt lat="39.520313" lon="-0.503037"><ele>67.91</ele><time>2012-01-28T11:15:25Z</time></trkpt><trkpt lat="39.520096" lon="-0.502882"><ele>68.39</ele><time>2012-01-28T11:15:35Z</time></trkpt><trkpt lat="39.520092" lon="-0.502868"><ele>68.87</ele><time>2012-01-28T11:15:46Z</time></trkpt><trkpt lat="39.520092" lon="-0.502868"><ele>68.87</ele><time>2012-01-28T11:16:14Z</time></trkpt><trkpt lat="39.520092" lon="-0.502867"><ele>68.87</ele><time>2012-01-28T11:16:37Z</time></trkpt><trkpt lat="39.520092" lon="-0.502865"><ele>68.87</ele><time>2012-01-28T11:17:02Z</time></trkpt><trkpt lat="39.520088" lon="-0.502847"><ele>68.87</ele><time>2012-01-28T11:17:23Z</time></trkpt><trkpt lat="39.519737" lon="-0.502489"><ele>68.39</ele><time>2012-01-28T11:17:35Z</time></trkpt><trkpt lat="39.519558" lon="-0.502306"><ele>66.95</ele><time>2012-01-28T11:17:42Z</time></trkpt><trkpt lat="39.519344" lon="-0.501814"><ele>65.51</ele><time>2012-01-28T11:17:52Z</time></trkpt><trkpt lat="39.519169" lon="-0.501716"><ele>64.07</ele><time>2012-01-28T11:17:58Z</time></trkpt><trkpt lat="39.519012" lon="-0.501793"><ele>64.55</ele><time>2012-01-28T11:18:06Z</time></trkpt><trkpt lat="39.518917" lon="-0.501900"><ele>63.10</ele><time>2012-01-28T11:18:09Z</time></trkpt><trkpt lat="39.518730" lon="-0.502286"><ele>61.18</ele><time>2012-01-28T11:18:17Z</time></trkpt><trkpt lat="39.518730" lon="-0.502286"><ele>61.18</ele><time>2012-01-28T11:18:21Z</time></trkpt><trkpt lat="39.518547" lon="-0.502574"><ele>59.26</ele><time>2012-01-28T11:18:30Z</time></trkpt><trkpt lat="39.518269" lon="-0.502974"><ele>54.93</ele><time>2012-01-28T11:18:37Z</time></trkpt><trkpt lat="39.518200" lon="-0.503005"><ele>54.45</ele><time>2012-01-28T11:18:44Z</time></trkpt><trkpt lat="39.518200" lon="-0.503005"><ele>54.45</ele><time>2012-01-28T11:18:46Z</time></trkpt><trkpt lat="39.518082" lon="-0.502993"><ele>58.30</ele><time>2012-01-28T11:18:54Z</time></trkpt><trkpt lat="39.518044" lon="-0.502962"><ele>60.70</ele><time>2012-01-28T11:19:07Z</time></trkpt><trkpt lat="39.517925" lon="-0.502791"><ele>61.18</ele><time>2012-01-28T11:19:18Z</time></trkpt><trkpt lat="39.517792" lon="-0.502613"><ele>60.70</ele><time>2012-01-28T11:19:25Z</time></trkpt><trkpt lat="39.517555" lon="-0.502587"><ele>57.82</ele><time>2012-01-28T11:19:31Z</time></trkpt><trkpt lat="39.517365" lon="-0.502480"><ele>56.37</ele><time>2012-01-28T11:19:38Z</time></trkpt><trkpt lat="39.517204" lon="-0.502524"><ele>55.89</ele><time>2012-01-28T11:19:43Z</time></trkpt><trkpt lat="39.516987" lon="-0.502647"><ele>55.41</ele><time>2012-01-28T11:19:50Z</time></trkpt><trkpt lat="39.516815" lon="-0.502512"><ele>53.97</ele><time>2012-01-28T11:19:56Z</time></trkpt><trkpt lat="39.516785" lon="-0.502428"><ele>54.93</ele><time>2012-01-28T11:20:06Z</time></trkpt><trkpt lat="39.516785" lon="-0.502428"><ele>54.93</ele><time>2012-01-28T11:20:07Z</time></trkpt><trkpt lat="39.516655" lon="-0.502637"><ele>53.01</ele><time>2012-01-28T11:20:14Z</time></trkpt><trkpt lat="39.516308" lon="-0.503070"><ele>50.13</ele><time>2012-01-28T11:20:23Z</time></trkpt><trkpt lat="39.516129" lon="-0.503155"><ele>49.16</ele><time>2012-01-28T11:20:28Z</time></trkpt><trkpt lat="39.516117" lon="-0.503178"><ele>49.16</ele><time>2012-01-28T11:20:36Z</time></trkpt><trkpt lat="39.516117" lon="-0.503178"><ele>49.16</ele><time>2012-01-28T11:20:44Z</time></trkpt><trkpt lat="39.515984" lon="-0.503024"><ele>49.65</ele><time>2012-01-28T11:20:53Z</time></trkpt><trkpt lat="39.515633" lon="-0.502834"><ele>49.16</ele><time>2012-01-28T11:21:06Z</time></trkpt><trkpt lat="39.515572" lon="-0.502728"><ele>49.65</ele><time>2012-01-28T11:21:11Z</time></trkpt><trkpt lat="39.515400" lon="-0.502533"><ele>50.13</ele><time>2012-01-28T11:21:19Z</time></trkpt><trkpt lat="39.515293" lon="-0.502260"><ele>51.57</ele><time>2012-01-28T11:21:28Z</time></trkpt><trkpt lat="39.515194" lon="-0.502175"><ele>52.05</ele><time>2012-01-28T11:21:33Z</time></trkpt><trkpt lat="39.515018" lon="-0.502028"><ele>53.01</ele><time>2012-01-28T11:21:42Z</time></trkpt><trkpt lat="39.514729" lon="-0.501782"><ele>51.57</ele><time>2012-01-28T11:21:57Z</time></trkpt><trkpt lat="39.514385" lon="-0.501498"><ele>51.09</ele><time>2012-01-28T11:22:07Z</time></trkpt><trkpt lat="39.514317" lon="-0.501419"><ele>50.61</ele><time>2012-01-28T11:22:09Z</time></trkpt><trkpt lat="39.514053" lon="-0.501253"><ele>50.61</ele><time>2012-01-28T11:22:15Z</time></trkpt><trkpt lat="39.513805" lon="-0.501134"><ele>50.13</ele><time>2012-01-28T11:22:20Z</time></trkpt><trkpt lat="39.513672" lon="-0.501060"><ele>49.65</ele><time>2012-01-28T11:22:23Z</time></trkpt><trkpt lat="39.513596" lon="-0.501003"><ele>50.13</ele><time>2012-01-28T11:22:25Z</time></trkpt><trkpt lat="39.513474" lon="-0.500920"><ele>49.65</ele><time>2012-01-28T11:22:28Z</time></trkpt><trkpt lat="39.513321" lon="-0.500837"><ele>50.13</ele><time>2012-01-28T11:22:32Z</time></trkpt><trkpt lat="39.513210" lon="-0.500785"><ele>50.61</ele><time>2012-01-28T11:22:41Z</time></trkpt><trkpt lat="39.513210" lon="-0.500784"><ele>50.61</ele><time>2012-01-28T11:22:54Z</time></trkpt><trkpt lat="39.513210" lon="-0.500782"><ele>50.61</ele><time>2012-01-28T11:23:18Z</time></trkpt><trkpt lat="39.513206" lon="-0.500781"><ele>50.61</ele><time>2012-01-28T11:23:43Z</time></trkpt><trkpt lat="39.513096" lon="-0.500750"><ele>50.61</ele><time>2012-01-28T11:23:48Z</time></trkpt><trkpt lat="39.513016" lon="-0.500693"><ele>50.61</ele><time>2012-01-28T11:23:50Z</time></trkpt><trkpt lat="39.512463" lon="-0.500352"><ele>52.05</ele><time>2012-01-28T11:24:02Z</time></trkpt><trkpt lat="39.512386" lon="-0.500302"><ele>52.53</ele><time>2012-01-28T11:24:04Z</time></trkpt><trkpt lat="39.512222" lon="-0.500172"><ele>53.01</ele><time>2012-01-28T11:24:09Z</time></trkpt><trkpt lat="39.512054" lon="-0.499924"><ele>52.53</ele><time>2012-01-28T11:24:14Z</time></trkpt><trkpt lat="39.511494" lon="-0.499344"><ele>50.61</ele><time>2012-01-28T11:24:26Z</time></trkpt><trkpt lat="39.511295" lon="-0.499260"><ele>49.16</ele><time>2012-01-28T11:24:30Z</time></trkpt><trkpt lat="39.511074" lon="-0.499338"><ele>47.72</ele><time>2012-01-28T11:24:34Z</time></trkpt><trkpt lat="39.510818" lon="-0.499382"><ele>44.36</ele><time>2012-01-28T11:24:42Z</time></trkpt><trkpt lat="39.510818" lon="-0.499382"><ele>44.36</ele><time>2012-01-28T11:25:01Z</time></trkpt><trkpt lat="39.510777" lon="-0.499368"><ele>43.88</ele><time>2012-01-28T11:25:26Z</time></trkpt><trkpt lat="39.510662" lon="-0.499330"><ele>43.40</ele><time>2012-01-28T11:25:30Z</time></trkpt><trkpt lat="39.510307" lon="-0.499052"><ele>43.88</ele><time>2012-01-28T11:25:38Z</time></trkpt><trkpt lat="39.510204" lon="-0.498860"><ele>43.40</ele><time>2012-01-28T11:25:42Z</time></trkpt><trkpt lat="39.510181" lon="-0.498679"><ele>43.88</ele><time>2012-01-28T11:25:45Z</time></trkpt><trkpt lat="39.510048" lon="-0.498287"><ele>43.88</ele><time>2012-01-28T11:25:52Z</time></trkpt><trkpt lat="39.509991" lon="-0.497898"><ele>43.40</ele><time>2012-01-28T11:25:58Z</time></trkpt><trkpt lat="39.510025" lon="-0.497628"><ele>44.36</ele><time>2012-01-28T11:26:02Z</time></trkpt><trkpt lat="39.510029" lon="-0.497497"><ele>44.84</ele><time>2012-01-28T11:26:04Z</time></trkpt><trkpt lat="39.510002" lon="-0.497266"><ele>45.80</ele><time>2012-01-28T11:26:08Z</time></trkpt><trkpt lat="39.509983" lon="-0.496764"><ele>47.72</ele><time>2012-01-28T11:26:20Z</time></trkpt><trkpt lat="39.509926" lon="-0.496134"><ele>47.24</ele><time>2012-01-28T11:26:35Z</time></trkpt><trkpt lat="39.509945" lon="-0.496004"><ele>46.76</ele><time>2012-01-28T11:26:45Z</time></trkpt><trkpt lat="39.509945" lon="-0.496004"><ele>46.76</ele><time>2012-01-28T11:26:54Z</time></trkpt><trkpt lat="39.509968" lon="-0.495714"><ele>46.76</ele><time>2012-01-28T11:27:01Z</time></trkpt><trkpt lat="39.510044" lon="-0.495225"><ele>46.28</ele><time>2012-01-28T11:27:11Z</time></trkpt><trkpt lat="39.510078" lon="-0.495003"><ele>46.28</ele><time>2012-01-28T11:27:15Z</time></trkpt><trkpt lat="39.510120" lon="-0.494783"><ele>46.28</ele><time>2012-01-28T11:27:19Z</time></trkpt><trkpt lat="39.510193" lon="-0.494443"><ele>46.76</ele><time>2012-01-28T11:27:25Z</time></trkpt><trkpt lat="39.510342" lon="-0.493825"><ele>46.76</ele><time>2012-01-28T11:27:38Z</time></trkpt><trkpt lat="39.510551" lon="-0.492871"><ele>44.84</ele><time>2012-01-28T11:27:56Z</time></trkpt><trkpt lat="39.510639" lon="-0.492520"><ele>45.32</ele><time>2012-01-28T11:28:03Z</time></trkpt><trkpt lat="39.510765" lon="-0.492285"><ele>44.84</ele><time>2012-01-28T11:28:08Z</time></trkpt><trkpt lat="39.510948" lon="-0.492049"><ele>46.28</ele><time>2012-01-28T11:28:19Z</time></trkpt><trkpt lat="39.510948" lon="-0.492049"><ele>46.28</ele><time>2012-01-28T11:28:40Z</time></trkpt><trkpt lat="39.510948" lon="-0.492049"><ele>46.28</ele><time>2012-01-28T11:29:09Z</time></trkpt><trkpt lat="39.510948" lon="-0.492049"><ele>46.28</ele><time>2012-01-28T11:29:34Z</time></trkpt><trkpt lat="39.510944" lon="-0.492049"><ele>46.28</ele><time>2012-01-28T11:30:02Z</time></trkpt><trkpt lat="39.510944" lon="-0.492047"><ele>46.28</ele><time>2012-01-28T11:30:21Z</time></trkpt><trkpt lat="39.510944" lon="-0.492047"><ele>46.28</ele><time>2012-01-28T11:30:27Z</time></trkpt><trkpt lat="39.510971" lon="-0.491719"><ele>45.32</ele><time>2012-01-28T11:30:35Z</time></trkpt><trkpt lat="39.511086" lon="-0.491162"><ele>43.88</ele><time>2012-01-28T11:30:42Z</time></trkpt><trkpt lat="39.511177" lon="-0.490871"><ele>43.88</ele><time>2012-01-28T11:30:46Z</time></trkpt><trkpt lat="39.511250" lon="-0.490683"><ele>43.88</ele><time>2012-01-28T11:30:49Z</time></trkpt><trkpt lat="39.511459" lon="-0.490038"><ele>44.84</ele><time>2012-01-28T11:31:02Z</time></trkpt><trkpt lat="39.511528" lon="-0.489739"><ele>44.36</ele><time>2012-01-28T11:31:07Z</time></trkpt><trkpt lat="39.511570" lon="-0.489556"><ele>43.88</ele><time>2012-01-28T11:31:10Z</time></trkpt><trkpt lat="39.511593" lon="-0.489308"><ele>44.84</ele><time>2012-01-28T11:31:14Z</time></trkpt><trkpt lat="39.511593" lon="-0.489001"><ele>44.84</ele><time>2012-01-28T11:31:19Z</time></trkpt><trkpt lat="39.511654" lon="-0.488697"><ele>44.84</ele><time>2012-01-28T11:31:24Z</time></trkpt><trkpt lat="39.511681" lon="-0.488569"><ele>44.36</ele><time>2012-01-28T11:31:26Z</time></trkpt><trkpt lat="39.511711" lon="-0.488118"><ele>42.44</ele><time>2012-01-28T11:31:32Z</time></trkpt><trkpt lat="39.511765" lon="-0.487864"><ele>42.92</ele><time>2012-01-28T11:31:35Z</time></trkpt><trkpt lat="39.511826" lon="-0.487132"><ele>43.40</ele><time>2012-01-28T11:31:45Z</time></trkpt><trkpt lat="39.511688" lon="-0.486602"><ele>40.03</ele><time>2012-01-28T11:31:51Z</time></trkpt><trkpt lat="39.511677" lon="-0.486368"><ele>38.59</ele><time>2012-01-28T11:31:53Z</time></trkpt><trkpt lat="39.511604" lon="-0.485754"><ele>35.71</ele><time>2012-01-28T11:31:59Z</time></trkpt><trkpt lat="39.511646" lon="-0.485417"><ele>35.23</ele><time>2012-01-28T11:32:03Z</time></trkpt><trkpt lat="39.511658" lon="-0.485020"><ele>36.67</ele><time>2012-01-28T11:32:09Z</time></trkpt><trkpt lat="39.511669" lon="-0.484788"><ele>36.67</ele><time>2012-01-28T11:32:13Z</time></trkpt><trkpt lat="39.511616" lon="-0.484037"><ele>36.67</ele><time>2012-01-28T11:32:29Z</time></trkpt><trkpt lat="39.511616" lon="-0.483940"><ele>36.67</ele><time>2012-01-28T11:32:31Z</time></trkpt><trkpt lat="39.511600" lon="-0.483738"><ele>37.15</ele><time>2012-01-28T11:32:35Z</time></trkpt><trkpt lat="39.511543" lon="-0.483452"><ele>36.19</ele><time>2012-01-28T11:32:40Z</time></trkpt><trkpt lat="39.511513" lon="-0.483333"><ele>35.71</ele><time>2012-01-28T11:32:42Z</time></trkpt><trkpt lat="39.511395" lon="-0.482790"><ele>34.74</ele><time>2012-01-28T11:32:51Z</time></trkpt><trkpt lat="39.511303" lon="-0.481959"><ele>33.30</ele><time>2012-01-28T11:33:03Z</time></trkpt><trkpt lat="39.511250" lon="-0.481725"><ele>34.74</ele><time>2012-01-28T11:33:07Z</time></trkpt><trkpt lat="39.511116" lon="-0.481257"><ele>36.19</ele><time>2012-01-28T11:33:18Z</time></trkpt><trkpt lat="39.511112" lon="-0.481232"><ele>36.67</ele><time>2012-01-28T11:33:24Z</time></trkpt><trkpt lat="39.511036" lon="-0.480959"><ele>37.63</ele><time>2012-01-28T11:33:36Z</time></trkpt><trkpt lat="39.510925" lon="-0.480686"><ele>36.19</ele><time>2012-01-28T11:33:42Z</time></trkpt><trkpt lat="39.510822" lon="-0.480419"><ele>36.19</ele><time>2012-01-28T11:33:47Z</time></trkpt><trkpt lat="39.510712" lon="-0.480248"><ele>36.67</ele><time>2012-01-28T11:33:51Z</time></trkpt><trkpt lat="39.510616" lon="-0.480104"><ele>35.71</ele><time>2012-01-28T11:33:54Z</time></trkpt><trkpt lat="39.510521" lon="-0.479857"><ele>33.78</ele><time>2012-01-28T11:33:59Z</time></trkpt><trkpt lat="39.510395" lon="-0.479865"><ele>32.34</ele><time>2012-01-28T11:34:03Z</time></trkpt><trkpt lat="39.510216" lon="-0.480030"><ele>35.23</ele><time>2012-01-28T11:34:09Z</time></trkpt><trkpt lat="39.509953" lon="-0.480223"><ele>35.71</ele><time>2012-01-28T11:34:17Z</time></trkpt><trkpt lat="39.509609" lon="-0.480079"><ele>34.26</ele><time>2012-01-28T11:34:23Z</time></trkpt><trkpt lat="39.509567" lon="-0.479942"><ele>34.74</ele><time>2012-01-28T11:34:25Z</time></trkpt><trkpt lat="39.509537" lon="-0.479814"><ele>34.74</ele><time>2012-01-28T11:34:27Z</time></trkpt><trkpt lat="39.509525" lon="-0.479696"><ele>35.23</ele><time>2012-01-28T11:34:29Z</time></trkpt><trkpt lat="39.509552" lon="-0.479461"><ele>35.71</ele><time>2012-01-28T11:34:33Z</time></trkpt><trkpt lat="39.509594" lon="-0.479249"><ele>35.23</ele><time>2012-01-28T11:34:37Z</time></trkpt><trkpt lat="39.509624" lon="-0.479137"><ele>34.74</ele><time>2012-01-28T11:34:39Z</time></trkpt><trkpt lat="39.509628" lon="-0.478889"><ele>34.74</ele><time>2012-01-28T11:34:43Z</time></trkpt><trkpt lat="39.509449" lon="-0.478168"><ele>35.23</ele><time>2012-01-28T11:34:54Z</time></trkpt><trkpt lat="39.509487" lon="-0.477326"><ele>36.19</ele><time>2012-01-28T11:35:08Z</time></trkpt><trkpt lat="39.509525" lon="-0.476848"><ele>35.23</ele><time>2012-01-28T11:35:21Z</time></trkpt><trkpt lat="39.509525" lon="-0.476431"><ele>35.23</ele><time>2012-01-28T11:35:32Z</time></trkpt><trkpt lat="39.509480" lon="-0.476053"><ele>35.23</ele><time>2012-01-28T11:35:43Z</time></trkpt><trkpt lat="39.509457" lon="-0.475862"><ele>35.71</ele><time>2012-01-28T11:35:47Z</time></trkpt><trkpt lat="39.509399" lon="-0.475472"><ele>35.71</ele><time>2012-01-28T11:35:56Z</time></trkpt><trkpt lat="39.509373" lon="-0.475373"><ele>35.23</ele><time>2012-01-28T11:35:58Z</time></trkpt><trkpt lat="39.509098" lon="-0.474747"><ele>36.67</ele><time>2012-01-28T11:36:12Z</time></trkpt><trkpt lat="39.509075" lon="-0.474709"><ele>36.19</ele><time>2012-01-28T11:36:23Z</time></trkpt><trkpt lat="39.509075" lon="-0.474709"><ele>36.19</ele><time>2012-01-28T11:36:50Z</time></trkpt><trkpt lat="39.509079" lon="-0.474708"><ele>36.19</ele><time>2012-01-28T11:37:17Z</time></trkpt><trkpt lat="39.509079" lon="-0.474708"><ele>36.19</ele><time>2012-01-28T11:37:18Z</time></trkpt><trkpt lat="39.508949" lon="-0.474347"><ele>37.15</ele><time>2012-01-28T11:37:28Z</time></trkpt><trkpt lat="39.508881" lon="-0.474210"><ele>37.15</ele><time>2012-01-28T11:37:31Z</time></trkpt><trkpt lat="39.508831" lon="-0.474123"><ele>37.15</ele><time>2012-01-28T11:37:33Z</time></trkpt><trkpt lat="39.508678" lon="-0.473933"><ele>37.15</ele><time>2012-01-28T11:37:38Z</time></trkpt><trkpt lat="39.508251" lon="-0.473453"><ele>36.19</ele><time>2012-01-28T11:37:51Z</time></trkpt><trkpt lat="39.508099" lon="-0.473239"><ele>36.67</ele><time>2012-01-28T11:37:56Z</time></trkpt><trkpt lat="39.507889" lon="-0.473044"><ele>36.19</ele><time>2012-01-28T11:38:02Z</time></trkpt><trkpt lat="39.507408" lon="-0.472919"><ele>37.15</ele><time>2012-01-28T11:38:14Z</time></trkpt><trkpt lat="39.507320" lon="-0.472910"><ele>36.67</ele><time>2012-01-28T11:38:16Z</time></trkpt><trkpt lat="39.506840" lon="-0.472977"><ele>38.11</ele><time>2012-01-28T11:38:27Z</time></trkpt><trkpt lat="39.506413" lon="-0.473090"><ele>38.59</ele><time>2012-01-28T11:38:39Z</time></trkpt><trkpt lat="39.506001" lon="-0.473172"><ele>38.59</ele><time>2012-01-28T11:38:49Z</time></trkpt><trkpt lat="39.505878" lon="-0.473190"><ele>38.11</ele><time>2012-01-28T11:38:52Z</time></trkpt><trkpt lat="39.505669" lon="-0.473207"><ele>37.15</ele><time>2012-01-28T11:38:57Z</time></trkpt><trkpt lat="39.505104" lon="-0.473363"><ele>35.23</ele><time>2012-01-28T11:39:08Z</time></trkpt><trkpt lat="39.504963" lon="-0.473402"><ele>35.23</ele><time>2012-01-28T11:39:11Z</time></trkpt><trkpt lat="39.504868" lon="-0.473421"><ele>34.74</ele><time>2012-01-28T11:39:13Z</time></trkpt><trkpt lat="39.504601" lon="-0.473546"><ele>33.30</ele><time>2012-01-28T11:39:18Z</time></trkpt><trkpt lat="39.504326" lon="-0.473807"><ele>33.30</ele><time>2012-01-28T11:39:28Z</time></trkpt><trkpt lat="39.504230" lon="-0.473811"><ele>33.78</ele><time>2012-01-28T11:39:33Z</time></trkpt><trkpt lat="39.504009" lon="-0.473597"><ele>35.23</ele><time>2012-01-28T11:39:43Z</time></trkpt><trkpt lat="39.503788" lon="-0.473674"><ele>33.78</ele><time>2012-01-28T11:39:48Z</time></trkpt><trkpt lat="39.503513" lon="-0.473889"><ele>33.30</ele><time>2012-01-28T11:39:55Z</time></trkpt><trkpt lat="39.503307" lon="-0.474013"><ele>32.82</ele><time>2012-01-28T11:40:00Z</time></trkpt><trkpt lat="39.503071" lon="-0.474064"><ele>32.82</ele><time>2012-01-28T11:40:05Z</time></trkpt><trkpt lat="39.502842" lon="-0.474030"><ele>33.30</ele><time>2012-01-28T11:40:10Z</time></trkpt><trkpt lat="39.502632" lon="-0.474092"><ele>33.78</ele><time>2012-01-28T11:40:15Z</time></trkpt><trkpt lat="39.502121" lon="-0.474189"><ele>32.82</ele><time>2012-01-28T11:40:28Z</time></trkpt><trkpt lat="39.501740" lon="-0.474199"><ele>32.82</ele><time>2012-01-28T11:40:40Z</time></trkpt><trkpt lat="39.501659" lon="-0.474187"><ele>32.82</ele><time>2012-01-28T11:40:42Z</time></trkpt><trkpt lat="39.501503" lon="-0.474107"><ele>32.82</ele><time>2012-01-28T11:40:46Z</time></trkpt><trkpt lat="39.501316" lon="-0.473824"><ele>33.30</ele><time>2012-01-28T11:40:54Z</time></trkpt><trkpt lat="39.501221" lon="-0.473535"><ele>32.82</ele><time>2012-01-28T11:41:00Z</time></trkpt><trkpt lat="39.500935" lon="-0.473245"><ele>33.30</ele><time>2012-01-28T11:41:08Z</time></trkpt><trkpt lat="39.500874" lon="-0.472840"><ele>33.78</ele><time>2012-01-28T11:41:14Z</time></trkpt><trkpt lat="39.500854" lon="-0.472447"><ele>33.30</ele><time>2012-01-28T11:41:20Z</time></trkpt><trkpt lat="39.500813" lon="-0.472122"><ele>32.82</ele><time>2012-01-28T11:41:25Z</time></trkpt><trkpt lat="39.500832" lon="-0.471851"><ele>32.82</ele><time>2012-01-28T11:41:29Z</time></trkpt><trkpt lat="39.500893" lon="-0.471594"><ele>32.82</ele><time>2012-01-28T11:41:33Z</time></trkpt><trkpt lat="39.500877" lon="-0.471272"><ele>32.34</ele><time>2012-01-28T11:41:38Z</time></trkpt><trkpt lat="39.500866" lon="-0.470955"><ele>31.86</ele><time>2012-01-28T11:41:43Z</time></trkpt><trkpt lat="39.500999" lon="-0.470339"><ele>31.38</ele><time>2012-01-28T11:41:53Z</time></trkpt><trkpt lat="39.501053" lon="-0.470101"><ele>31.38</ele><time>2012-01-28T11:41:58Z</time></trkpt><trkpt lat="39.501190" lon="-0.469577"><ele>31.86</ele><time>2012-01-28T11:42:12Z</time></trkpt><trkpt lat="39.501286" lon="-0.469113"><ele>32.34</ele><time>2012-01-28T11:42:23Z</time></trkpt><trkpt lat="39.501289" lon="-0.469066"><ele>32.34</ele><time>2012-01-28T11:42:24Z</time></trkpt><trkpt lat="39.501358" lon="-0.468874"><ele>32.34</ele><time>2012-01-28T11:42:28Z</time></trkpt><trkpt lat="39.501568" lon="-0.468528"><ele>31.38</ele><time>2012-01-28T11:42:35Z</time></trkpt><trkpt lat="39.501930" lon="-0.467956"><ele>33.78</ele><time>2012-01-28T11:42:48Z</time></trkpt><trkpt lat="39.501888" lon="-0.467574"><ele>34.26</ele><time>2012-01-28T11:42:57Z</time></trkpt><trkpt lat="39.501812" lon="-0.467183"><ele>33.30</ele><time>2012-01-28T11:43:04Z</time></trkpt><trkpt lat="39.501774" lon="-0.466703"><ele>31.86</ele><time>2012-01-28T11:43:12Z</time></trkpt><trkpt lat="39.502068" lon="-0.466433"><ele>36.67</ele><time>2012-01-28T11:43:24Z</time></trkpt><trkpt lat="39.502453" lon="-0.465989"><ele>37.15</ele><time>2012-01-28T11:43:37Z</time></trkpt><trkpt lat="39.502621" lon="-0.465789"><ele>37.15</ele><time>2012-01-28T11:43:43Z</time></trkpt><trkpt lat="39.503052" lon="-0.465228"><ele>37.63</ele><time>2012-01-28T11:43:57Z</time></trkpt><trkpt lat="39.503319" lon="-0.464851"><ele>37.63</ele><time>2012-01-28T11:44:07Z</time></trkpt><trkpt lat="39.503483" lon="-0.464624"><ele>37.63</ele><time>2012-01-28T11:44:13Z</time></trkpt><trkpt lat="39.503815" lon="-0.464185"><ele>37.63</ele><time>2012-01-28T11:44:27Z</time></trkpt><trkpt lat="39.504017" lon="-0.463894"><ele>37.63</ele><time>2012-01-28T11:44:37Z</time></trkpt><trkpt lat="39.504261" lon="-0.463531"><ele>37.63</ele><time>2012-01-28T11:44:50Z</time></trkpt><trkpt lat="39.504307" lon="-0.463470"><ele>37.63</ele><time>2012-01-28T11:44:53Z</time></trkpt><trkpt lat="39.504387" lon="-0.463357"><ele>38.11</ele><time>2012-01-28T11:44:59Z</time></trkpt><trkpt lat="39.504398" lon="-0.463339"><ele>38.11</ele><time>2012-01-28T11:45:11Z</time></trkpt><trkpt lat="39.504398" lon="-0.463340"><ele>38.11</ele><time>2012-01-28T11:45:44Z</time></trkpt><trkpt lat="39.504467" lon="-0.463225"><ele>39.07</ele><time>2012-01-28T11:46:00Z</time></trkpt><trkpt lat="39.504723" lon="-0.462864"><ele>38.59</ele><time>2012-01-28T11:46:10Z</time></trkpt><trkpt lat="39.504936" lon="-0.462511"><ele>38.11</ele><time>2012-01-28T11:46:18Z</time></trkpt><trkpt lat="39.505013" lon="-0.462371"><ele>38.11</ele><time>2012-01-28T11:46:21Z</time></trkpt><trkpt lat="39.505135" lon="-0.462247"><ele>38.11</ele><time>2012-01-28T11:46:25Z</time></trkpt><trkpt lat="39.505169" lon="-0.461950"><ele>39.07</ele><time>2012-01-28T11:46:32Z</time></trkpt><trkpt lat="39.505142" lon="-0.461699"><ele>40.03</ele><time>2012-01-28T11:46:39Z</time></trkpt><trkpt lat="39.505039" lon="-0.461376"><ele>40.03</ele><time>2012-01-28T11:46:45Z</time></trkpt><trkpt lat="39.504787" lon="-0.460764"><ele>40.03</ele><time>2012-01-28T11:47:01Z</time></trkpt><trkpt lat="39.504810" lon="-0.460368"><ele>41.95</ele><time>2012-01-28T11:47:15Z</time></trkpt><trkpt lat="39.504879" lon="-0.459764"><ele>40.99</ele><time>2012-01-28T11:47:28Z</time></trkpt><trkpt lat="39.505177" lon="-0.459419"><ele>38.11</ele><time>2012-01-28T11:47:39Z</time></trkpt><trkpt lat="39.505234" lon="-0.459373"><ele>38.11</ele><time>2012-01-28T11:47:41Z</time></trkpt><trkpt lat="39.505226" lon="-0.459132"><ele>40.03</ele><time>2012-01-28T11:47:46Z</time></trkpt><trkpt lat="39.505199" lon="-0.459068"><ele>40.99</ele><time>2012-01-28T11:47:48Z</time></trkpt><trkpt lat="39.505337" lon="-0.459053"><ele>43.40</ele><time>2012-01-28T11:47:55Z</time></trkpt><trkpt lat="39.505505" lon="-0.459156"><ele>44.84</ele><time>2012-01-28T11:48:04Z</time></trkpt><trkpt lat="39.505524" lon="-0.459061"><ele>45.80</ele><time>2012-01-28T11:48:08Z</time></trkpt><trkpt lat="39.505539" lon="-0.458990"><ele>45.32</ele><time>2012-01-28T11:48:10Z</time></trkpt><trkpt lat="39.505379" lon="-0.458648"><ele>48.68</ele><time>2012-01-28T11:48:22Z</time></trkpt><trkpt lat="39.505177" lon="-0.457937"><ele>46.76</ele><time>2012-01-28T11:48:37Z</time></trkpt><trkpt lat="39.505169" lon="-0.457346"><ele>45.80</ele><time>2012-01-28T11:48:48Z</time></trkpt><trkpt lat="39.505062" lon="-0.457085"><ele>45.80</ele><time>2012-01-28T11:48:54Z</time></trkpt><trkpt lat="39.505016" lon="-0.457007"><ele>45.80</ele><time>2012-01-28T11:48:56Z</time></trkpt><trkpt lat="39.505032" lon="-0.456665"><ele>45.80</ele><time>2012-01-28T11:49:02Z</time></trkpt><trkpt lat="39.505074" lon="-0.456438"><ele>45.80</ele><time>2012-01-28T11:49:06Z</time></trkpt><trkpt lat="39.505157" lon="-0.456218"><ele>44.84</ele><time>2012-01-28T11:49:10Z</time></trkpt><trkpt lat="39.505207" lon="-0.455981"><ele>43.88</ele><time>2012-01-28T11:49:14Z</time></trkpt><trkpt lat="39.505215" lon="-0.455792"><ele>43.40</ele><time>2012-01-28T11:49:17Z</time></trkpt><trkpt lat="39.505322" lon="-0.455440"><ele>43.88</ele><time>2012-01-28T11:49:23Z</time></trkpt><trkpt lat="39.505501" lon="-0.455093"><ele>44.36</ele><time>2012-01-28T11:49:30Z</time></trkpt><trkpt lat="39.505642" lon="-0.454925"><ele>43.88</ele><time>2012-01-28T11:49:35Z</time></trkpt><trkpt lat="39.505585" lon="-0.454743"><ele>44.36</ele><time>2012-01-28T11:49:43Z</time></trkpt><trkpt lat="39.505455" lon="-0.454464"><ele>45.80</ele><time>2012-01-28T11:49:50Z</time></trkpt><trkpt lat="39.505245" lon="-0.454116"><ele>45.80</ele><time>2012-01-28T11:50:00Z</time></trkpt><trkpt lat="39.504765" lon="-0.453378"><ele>45.32</ele><time>2012-01-28T11:50:17Z</time></trkpt><trkpt lat="39.504120" lon="-0.452378"><ele>45.32</ele><time>2012-01-28T11:50:37Z</time></trkpt><trkpt lat="39.503487" lon="-0.451383"><ele>44.84</ele><time>2012-01-28T11:50:56Z</time></trkpt><trkpt lat="39.503124" lon="-0.450757"><ele>45.32</ele><time>2012-01-28T11:51:10Z</time></trkpt><trkpt lat="39.503109" lon="-0.450672"><ele>45.32</ele><time>2012-01-28T11:51:12Z</time></trkpt><trkpt lat="39.503212" lon="-0.450513"><ele>44.36</ele><time>2012-01-28T11:51:18Z</time></trkpt><trkpt lat="39.503399" lon="-0.450326"><ele>43.88</ele><time>2012-01-28T11:51:30Z</time></trkpt><trkpt lat="39.503426" lon="-0.450308"><ele>43.40</ele><time>2012-01-28T11:51:41Z</time></trkpt><trkpt lat="39.503410" lon="-0.450119"><ele>42.44</ele><time>2012-01-28T11:51:48Z</time></trkpt><trkpt lat="39.503181" lon="-0.449593"><ele>45.32</ele><time>2012-01-28T11:51:58Z</time></trkpt><trkpt lat="39.503098" lon="-0.449364"><ele>46.76</ele><time>2012-01-28T11:52:02Z</time></trkpt><trkpt lat="39.502979" lon="-0.449107"><ele>47.24</ele><time>2012-01-28T11:52:07Z</time></trkpt><trkpt lat="39.502811" lon="-0.448765"><ele>47.72</ele><time>2012-01-28T11:52:15Z</time></trkpt><trkpt lat="39.502735" lon="-0.448564"><ele>47.24</ele><time>2012-01-28T11:52:19Z</time></trkpt><trkpt lat="39.502449" lon="-0.447950"><ele>48.68</ele><time>2012-01-28T11:52:32Z</time></trkpt><trkpt lat="39.502186" lon="-0.447359"><ele>52.05</ele><time>2012-01-28T11:52:46Z</time></trkpt><trkpt lat="39.502113" lon="-0.447147"><ele>52.05</ele><time>2012-01-28T11:52:51Z</time></trkpt><trkpt lat="39.502060" lon="-0.446898"><ele>50.61</ele><time>2012-01-28T11:52:57Z</time></trkpt><trkpt lat="39.501720" lon="-0.446589"><ele>53.97</ele><time>2012-01-28T11:53:06Z</time></trkpt><trkpt lat="39.501766" lon="-0.446352"><ele>53.97</ele><time>2012-01-28T11:53:11Z</time></trkpt><trkpt lat="39.502182" lon="-0.446032"><ele>50.61</ele><time>2012-01-28T11:53:24Z</time></trkpt><trkpt lat="39.502663" lon="-0.445624"><ele>50.61</ele><time>2012-01-28T11:53:38Z</time></trkpt><trkpt lat="39.502808" lon="-0.445510"><ele>50.61</ele><time>2012-01-28T11:53:42Z</time></trkpt><trkpt lat="39.503036" lon="-0.445208"><ele>54.45</ele><time>2012-01-28T11:53:53Z</time></trkpt><trkpt lat="39.503063" lon="-0.445168"><ele>54.93</ele><time>2012-01-28T11:53:54Z</time></trkpt><trkpt lat="39.503193" lon="-0.444961"><ele>56.37</ele><time>2012-01-28T11:53:58Z</time></trkpt><trkpt lat="39.503506" lon="-0.444448"><ele>58.78</ele><time>2012-01-28T11:54:08Z</time></trkpt><trkpt lat="39.503593" lon="-0.444269"><ele>58.30</ele><time>2012-01-28T11:54:12Z</time></trkpt><trkpt lat="39.503742" lon="-0.443889"><ele>59.74</ele><time>2012-01-28T11:54:24Z</time></trkpt><trkpt lat="39.503742" lon="-0.443889"><ele>59.74</ele><time>2012-01-28T11:54:30Z</time></trkpt><trkpt lat="39.503761" lon="-0.443872"><ele>59.74</ele><time>2012-01-28T11:54:33Z</time></trkpt><trkpt lat="39.503780" lon="-0.443901"><ele>61.18</ele><time>2012-01-28T11:54:43Z</time></trkpt><trkpt lat="39.503872" lon="-0.443862"><ele>62.62</ele><time>2012-01-28T11:54:47Z</time></trkpt><trkpt lat="39.504200" lon="-0.443503"><ele>63.10</ele><time>2012-01-28T11:54:59Z</time></trkpt><trkpt lat="39.504501" lon="-0.443137"><ele>64.07</ele><time>2012-01-28T11:55:11Z</time></trkpt><trkpt lat="39.504677" lon="-0.442935"><ele>66.95</ele><time>2012-01-28T11:55:21Z</time></trkpt><trkpt lat="39.504700" lon="-0.442905"><ele>67.43</ele><time>2012-01-28T11:55:22Z</time></trkpt><trkpt lat="39.504673" lon="-0.442727"><ele>68.87</ele><time>2012-01-28T11:55:26Z</time></trkpt><trkpt lat="39.504639" lon="-0.442647"><ele>69.83</ele><time>2012-01-28T11:55:28Z</time></trkpt><trkpt lat="39.504562" lon="-0.442466"><ele>71.27</ele><time>2012-01-28T11:55:32Z</time></trkpt><trkpt lat="39.504509" lon="-0.442271"><ele>71.76</ele><time>2012-01-28T11:55:36Z</time></trkpt><trkpt lat="39.504551" lon="-0.441473"><ele>72.24</ele><time>2012-01-28T11:55:51Z</time></trkpt><trkpt lat="39.504536" lon="-0.441311"><ele>73.68</ele><time>2012-01-28T11:55:54Z</time></trkpt><trkpt lat="39.504475" lon="-0.441133"><ele>74.64</ele><time>2012-01-28T11:55:57Z</time></trkpt><trkpt lat="39.504360" lon="-0.440952"><ele>75.12</ele><time>2012-01-28T11:56:01Z</time></trkpt><trkpt lat="39.504375" lon="-0.440649"><ele>78.00</ele><time>2012-01-28T11:56:07Z</time></trkpt><trkpt lat="39.504498" lon="-0.440330"><ele>75.60</ele><time>2012-01-28T11:56:18Z</time></trkpt><trkpt lat="39.504498" lon="-0.440330"><ele>75.60</ele><time>2012-01-28T11:56:22Z</time></trkpt></trkseg></trk></gpx>